Provisional Data: Susquehanna River near Rockville, PA


Please select a monitoring station.
Please select start date.
Please select start date.

Toggle Unit: C/F Toggle Unit: C/F
Sample Time Temperature (C) Temperature (F) Specific Conductivity (mS/cm) pH   Turbidity (NTU+) DO (mg/L)
9/6/2022 12:00:00 AM 19.62 67.316 8.19 11.75 -5
9/6/2022 12:15:00 AM 18.73 65.714 8.18 12.41 -5
9/6/2022 12:30:00 AM 17.11 62.798 8.15 11.87 -5
9/6/2022 12:45:00 AM 17.97 64.346 8.16 12.02 -5
9/6/2022 1:00:00 AM 18.86 65.948 8.13 11.93 -5
9/6/2022 1:15:00 AM 17.37 63.266 8.11 12.51 -5
9/6/2022 1:30:00 AM 17.75 63.95 8.06 13.17 -5
9/6/2022 1:45:00 AM 16.85 62.33 8.03 12.75 -5
9/6/2022 2:00:00 AM 18.23 64.814 8.01 12.81 -5
9/6/2022 2:15:00 AM 17.74 63.932 7.99 12.37 -5
9/6/2022 2:30:00 AM 17.22 62.996 7.99 12.25 -5
9/6/2022 2:45:00 AM 17.48 63.464 7.98 12.46 -5
9/6/2022 3:00:00 AM 17.6 63.68 7.96 12.36 -5
9/6/2022 3:15:00 AM 18.23 64.814 7.94 12.12 -5
9/6/2022 3:30:00 AM 18.6 65.48 7.91 12.11 -5
9/6/2022 3:45:00 AM 18.6 65.48 7.9 11.92 -5
9/6/2022 4:00:00 AM 18.23 64.814 7.88 11.99 -5
9/6/2022 4:15:00 AM 18.27 64.886 7.89 12.09 -5
9/6/2022 4:30:00 AM 17.23 63.014 7.89 12.03 -5
9/6/2022 4:45:00 AM 17.37 63.266 7.88 12.22 -5
9/6/2022 5:00:00 AM 17.86 64.148 7.87 12.51 -5
9/6/2022 5:15:00 AM 15.86 60.548 7.81 14.3 -5
9/6/2022 5:30:00 AM 14.49 58.082 7.75 17.75 -5
9/6/2022 5:45:00 AM 10.34 50.612 7.69 22.73 -5
9/6/2022 6:00:00 AM 9.59 49.262 7.64 30.74 -5
9/6/2022 6:15:00 AM 8.89 48.002 7.59 41.84 -5
9/6/2022 6:30:00 AM 6.33 43.394 7.54 50.67 -5
9/6/2022 6:45:00 AM 4.58 40.244 7.5 55.2 -5
9/6/2022 7:00:00 AM 6.66 43.988 7.48 58.2 -5
9/6/2022 7:15:00 AM 9.22 48.596 7.45 57.38 -5
9/6/2022 7:30:00 AM 4.59 40.262 7.43 53.14 -5
9/6/2022 7:45:00 AM 4.96 40.928 7.43 51.21 -5
9/6/2022 8:00:00 AM -9.96 14.072 7.43 51.89 -5
9/6/2022 8:15:00 AM -9.96 14.072 7.42 51.2 -5
9/6/2022 8:30:00 AM -9.58 14.756 7.43 50.54 -5
9/6/2022 8:45:00 AM -5.19 22.658 7.44 46.8 -5
9/6/2022 9:00:00 AM -5.06 22.892 7.43 44.92 -5
9/6/2022 9:15:00 AM -5.06 22.892 7.44 41.05 -5
9/6/2022 9:30:00 AM -9.96 14.072 7.45 39.9 -5
9/6/2022 9:45:00 AM -9.96 14.072 7.46 37.98 -5
9/6/2022 10:00:00 AM -9.97 14.054 7.47 35.72 -5
9/6/2022 10:15:00 AM -9.97 14.054 7.49 34.02 -5
9/6/2022 10:30:00 AM -9.96 14.072 7.49 32.36 -5
9/6/2022 10:45:00 AM -9.96 14.072 7.5 30.73 -5
9/6/2022 11:00:00 AM -9.96 14.072 7.51 29.64 -5
9/6/2022 11:15:00 AM -9.96 14.072 7.52 26.84 -5
9/6/2022 11:30:00 AM -9.96 14.072 7.53 25.07 -5
9/6/2022 11:45:00 AM -9.96 14.072 7.55 23.81 -5
9/6/2022 12:00:00 PM -9.96 14.072 7.55 22.95 -5
9/6/2022 12:15:00 PM -9.96 14.072 7.55 21.87 -5
9/6/2022 12:30:00 PM -9.97 14.054 7.56 21.69 -5
9/6/2022 12:45:00 PM -9.97 14.054 7.56 21.05 -5
9/6/2022 1:00:00 PM -9.96 14.072 7.56 21.3 -5
9/6/2022 1:15:00 PM -9.96 14.072 7.57 20.63 -5
9/6/2022 1:30:00 PM -9.97 14.054 7.57 19.73 -5
9/6/2022 1:45:00 PM -9.96 14.072 7.57 19.5 -5
9/6/2022 2:00:00 PM -9.96 14.072 7.58 18.68 -5
9/6/2022 2:15:00 PM -9.96 14.072 7.58 18.35 -5
9/6/2022 2:30:00 PM -9.96 14.072 7.59 17.71 -5
9/6/2022 2:45:00 PM -9.96 14.072 7.59 17.31 -5
9/6/2022 3:00:00 PM -9.96 14.072 7.59 16.86 -5
9/6/2022 3:15:00 PM -9.96 14.072 7.6 16.3 -5
9/6/2022 3:30:00 PM -9.96 14.072 7.61 16.39 -5
9/6/2022 3:45:00 PM -9.96 14.072 7.62 15.69 -5
9/6/2022 4:00:00 PM -9.96 14.072 7.63 15.52 -5
9/6/2022 4:15:00 PM -9.96 14.072 7.68 19.26 -5
9/6/2022 4:30:00 PM -9.96 14.072 7.69 16.62 -5
9/6/2022 4:45:00 PM -9.96 14.072 7.71 15.84 -5
9/6/2022 5:00:00 PM -9.96 14.072 7.73 14.98 -5
9/6/2022 5:15:00 PM -9.96 14.072 7.74 16.5 -5
9/6/2022 5:30:00 PM -9.96 14.072 7.8 17.01 -5
9/6/2022 5:45:00 PM -9.96 14.072 7.82 15.45 -5
9/6/2022 6:00:00 PM -9.96 14.072 7.88 15.14 -5
9/6/2022 6:15:00 PM -9.96 14.072 7.89 14.44 -5
9/6/2022 6:30:00 PM -9.96 14.072 7.9 14.34 -5
9/6/2022 6:45:00 PM -9.96 14.072 7.92 14.05 -5
9/6/2022 7:00:00 PM -9.96 14.072 7.9 14.13 -5
9/6/2022 7:15:00 PM -9.96 14.072 7.9 14.18 -5
9/6/2022 7:30:00 PM -9.96 14.072 7.89 14.01 -5
9/6/2022 7:45:00 PM -9.96 14.072 7.88 14.19 -5
9/6/2022 8:00:00 PM -9.96 14.072 7.9 14.01 -5
9/6/2022 8:15:00 PM -9.96 14.072 7.91 14.01 -5
9/6/2022 8:30:00 PM -9.96 14.072 7.9 14.4 -5
9/6/2022 8:45:00 PM -9.97 14.054 7.88 14.6 -5
9/6/2022 9:00:00 PM -9.97 14.054 7.88 14.49 -5
9/6/2022 9:15:00 PM -9.96 14.072 7.88 14.51 -5
9/6/2022 9:30:00 PM -9.96 14.072 7.89 14.5 -5
9/6/2022 9:45:00 PM -9.96 14.072 7.89 14.81 -5
9/6/2022 10:00:00 PM -9.96 14.072 7.88 14.68 -5
9/6/2022 10:15:00 PM -9.96 14.072 7.89 14.8 -5
9/6/2022 10:30:00 PM -9.96 14.072 7.88 14.66 -5
9/6/2022 10:45:00 PM -9.96 14.072 7.89 14.61 -5
9/6/2022 11:00:00 PM -9.96 14.072 7.89 14.4 -5
9/6/2022 11:15:00 PM -9.96 14.072 7.91 14.63 -5
9/6/2022 11:30:00 PM -9.96 14.072 7.93 14.64 -5
9/6/2022 11:45:00 PM -9.96 14.072 7.9 14.55 -5
9/7/2022 12:00:00 AM -9.96 14.072 7.89 14.49 -5
9/7/2022 12:15:00 AM -9.96 14.072 7.89 14.38 -5
9/7/2022 12:30:00 AM -9.96 14.072 7.89 14.48 -5
9/7/2022 12:45:00 AM -9.96 14.072 7.89 14.5 -5
9/7/2022 1:00:00 AM -9.97 14.054 7.89 14.25 -5
9/7/2022 1:15:00 AM -9.97 14.054 7.89 14.25 -5
9/7/2022 1:30:00 AM -9.96 14.072 7.88 14.05 -5
9/7/2022 1:45:00 AM -9.96 14.072 7.89 14.09 -5
9/7/2022 2:00:00 AM -9.96 14.072 7.91 14.02 -5
9/7/2022 2:15:00 AM -9.96 14.072 7.91 14 -5
9/7/2022 2:30:00 AM -9.96 14.072 7.92 13.99 -5
9/7/2022 2:45:00 AM -9.96 14.072 7.91 13.89 -5
9/7/2022 3:00:00 AM -9.96 14.072 7.91 14.05 -5
9/7/2022 3:15:00 AM -9.96 14.072 7.89 14 -5
9/7/2022 3:30:00 AM -9.96 14.072 7.88 14.07 -5
9/7/2022 3:45:00 AM -9.96 14.072 7.87 13.99 -5
9/7/2022 4:00:00 AM -9.96 14.072 7.87 14.03 -5
9/7/2022 4:15:00 AM -9.96 14.072 7.86 14.14 -5
9/7/2022 4:30:00 AM -9.96 14.072 7.84 14.1 -5
9/7/2022 4:45:00 AM -9.96 14.072 7.85 14.15 -5
9/7/2022 5:00:00 AM -9.96 14.072 7.84 14.06 -5
9/7/2022 5:15:00 AM -9.97 14.054 7.85 14.25 -5
9/7/2022 5:30:00 AM -9.96 14.072 7.84 14.21 -5
9/7/2022 5:45:00 AM -9.96 14.072 7.84 14.22 -5
9/7/2022 6:00:00 AM -9.96 14.072 7.82 14.58 -5
9/7/2022 6:15:00 AM -9.97 14.054 7.82 14.84 -5
9/7/2022 6:30:00 AM -9.96 14.072 7.83 14.65 -5
9/7/2022 6:45:00 AM -9.96 14.072 7.83 15.04 -5
9/7/2022 7:00:00 AM -9.96 14.072 7.82 15.19 -5
9/7/2022 7:15:00 AM -9.96 14.072 7.82 15.4 -5
9/7/2022 7:30:00 AM -9.96 14.072 7.86 15.95 -5
9/7/2022 7:45:00 AM -9.96 14.072 7.89 15.46 -5
9/7/2022 8:00:00 AM -9.96 14.072 7.9 15.53 -5
9/7/2022 8:15:00 AM -9.96 14.072 7.92 15.52 -5
9/7/2022 8:30:00 AM -9.96 14.072 7.93 15.21 -5
9/7/2022 8:45:00 AM -9.96 14.072 7.94 15.47 -5
9/7/2022 9:00:00 AM -9.96 14.072 7.96 15.14 -5
9/7/2022 9:15:00 AM -9.97 14.054 7.97 15.39 -5
9/7/2022 9:30:00 AM -9.96 14.072 7.98 15.54 -5
9/7/2022 9:45:00 AM -9.96 14.072 7.97 15.49 -5
9/7/2022 10:00:00 AM -9.96 14.072 7.98 15.54 -5
9/7/2022 10:15:00 AM -9.96 14.072 7.97 15.8 -5
9/7/2022 10:30:00 AM -9.96 14.072 7.98 16.17 -5
9/7/2022 10:45:00 AM -9.96 14.072 8 15.53 -5
9/7/2022 11:00:00 AM -9.96 14.072 8.02 16.37 -5
9/7/2022 11:15:00 AM -9.96 14.072 8.01 16.71 -5
9/7/2022 11:30:00 AM -9.96 14.072 8.01 17.45 -5
9/7/2022 11:45:00 AM -9.96 14.072 7.96 17.44 -5
9/7/2022 12:00:00 PM -9.96 14.072 7.99 18.23 -5
9/7/2022 12:15:00 PM -9.96 14.072 7.95 18.44 -5
9/7/2022 12:30:00 PM -9.96 14.072 7.97 18.74 -5
9/7/2022 12:45:00 PM -9.96 14.072 7.96 19.36 -5
9/7/2022 1:00:00 PM -9.96 14.072 8.02 20.39 -5
9/7/2022 1:15:00 PM -9.96 14.072 8 21.53 -5
9/7/2022 1:30:00 PM -9.96 14.072 8.02 21.86 -5
9/7/2022 1:45:00 PM -9.96 14.072 7.98 22.82 -5
9/7/2022 2:00:00 PM -9.96 14.072 7.98 23.65 -5
9/7/2022 2:15:00 PM -9.96 14.072 7.96 25.19 -5
9/7/2022 2:30:00 PM -9.96 14.072 7.99 26.79 -5
9/7/2022 2:45:00 PM -9.97 14.054 7.97 28.35 -5
9/7/2022 3:00:00 PM -9.96 14.072 7.98 29.79 -5
9/7/2022 3:15:00 PM -9.97 14.054 8 31.05 -5
9/7/2022 3:30:00 PM -9.97 14.054 7.98 32.9 -5
9/7/2022 3:45:00 PM -9.96 14.072 7.98 34.96 -5
9/7/2022 4:00:00 PM -9.96 14.072 7.92 37.35 -5
9/7/2022 4:15:00 PM -9.97 14.054 7.93 39.48 -5
9/7/2022 4:30:00 PM -9.96 14.072 7.9 41.54 -5
9/7/2022 4:45:00 PM -9.96 14.072 7.89 43.31 -5
9/7/2022 5:00:00 PM -9.96 14.072 7.85 44.69 -5
9/7/2022 5:15:00 PM -9.96 14.072 7.85 47.45 -5
9/7/2022 5:30:00 PM -9.96 14.072 7.82 48.74 -5
9/7/2022 5:45:00 PM -9.96 14.072 7.82 50.71 -5
9/7/2022 6:00:00 PM -9.96 14.072 7.8 51.59 -5
9/7/2022 6:15:00 PM -9.97 14.054 7.78 55.58 -5
9/7/2022 6:30:00 PM -9.96 14.072 7.77 57.52 -5
9/7/2022 6:45:00 PM -9.96 14.072 7.76 58.9 -5
9/7/2022 7:00:00 PM -9.96 14.072 7.75 61.14 -5
9/7/2022 7:15:00 PM -9.96 14.072 7.7 62.06 -5
9/7/2022 7:30:00 PM -9.96 14.072 7.7 62.51 -5
9/7/2022 7:45:00 PM -9.97 14.054 7.63 64.14 -5
9/7/2022 8:00:00 PM -9.96 14.072 7.64 64.45 -5
9/7/2022 8:15:00 PM -9.96 14.072 7.59 65.66 -5
9/7/2022 8:30:00 PM -9.96 14.072 7.61 66.05 -5
9/7/2022 8:45:00 PM -9.96 14.072 7.56 65.45 -5
9/7/2022 9:00:00 PM -9.96 14.072 7.59 65.88 -5
9/7/2022 9:15:00 PM -9.96 14.072 7.54 66.16 -5
9/7/2022 9:30:00 PM -9.96 14.072 7.56 66.03 -5
9/7/2022 9:45:00 PM -9.96 14.072 7.53 64.75 -5
9/7/2022 10:00:00 PM -9.96 14.072 7.55 62.94 -5
9/7/2022 10:15:00 PM -9.96 14.072 7.54 62.89 -5
9/7/2022 10:30:00 PM -9.96 14.072 7.55 62.57 -5
9/7/2022 10:45:00 PM -9.96 14.072 7.54 63.54 -5
9/7/2022 11:00:00 PM -9.96 14.072 7.53 63 -5
9/7/2022 11:15:00 PM -9.96 14.072 7.54 61.36 -5
9/7/2022 11:30:00 PM -9.96 14.072 7.52 61.11 -5
9/7/2022 11:45:00 PM -9.97 14.054 7.54 60.79 -5
9/8/2022 12:00:00 AM -9.97 14.054 7.5 61.21 -5
9/8/2022 12:15:00 AM -9.96 14.072 7.52 64.77 -5
9/8/2022 12:30:00 AM -9.96 14.072 7.49 60.6 -5
9/8/2022 12:45:00 AM -9.97 14.054 7.52 59.43 -5
9/8/2022 1:00:00 AM -9.96 14.072 7.49 60.8 -5
9/8/2022 1:15:00 AM -9.96 14.072 7.51 58.46 -5
9/8/2022 1:30:00 AM -9.96 14.072 7.49 58.69 -5
9/8/2022 1:45:00 AM -9.96 14.072 7.51 58.08 -5
9/8/2022 2:00:00 AM -9.96 14.072 7.5 58.04 -5
9/8/2022 2:15:00 AM -9.96 14.072 7.5 58.81 -5
9/8/2022 2:30:00 AM -9.96 14.072 7.51 57.32 -5
9/8/2022 2:45:00 AM -9.96 14.072 7.49 60.51 -5
9/8/2022 3:00:00 AM -9.96 14.072 7.51 56.82 -5
9/8/2022 3:15:00 AM -9.96 14.072 7.48 55.2 -5
9/8/2022 3:30:00 AM -9.96 14.072 7.5 55 -5
9/8/2022 3:45:00 AM -9.96 14.072 7.48 53.61 -5
9/8/2022 4:00:00 AM -9.96 14.072 7.49 54.07 -5
9/8/2022 4:15:00 AM -9.97 14.054 7.47 52.4 -5
9/8/2022 4:30:00 AM -9.96 14.072 7.49 52.83 -5
9/8/2022 4:45:00 AM -9.96 14.072 7.47 54.67 -5
9/8/2022 5:00:00 AM -9.96 14.072 7.49 50.92 -5
9/8/2022 5:15:00 AM -9.96 14.072 7.49 50.33 -5
9/8/2022 5:30:00 AM -9.96 14.072 7.49 49.91 -5
9/8/2022 5:45:00 AM -9.96 14.072 7.49 49.34 -5
9/8/2022 6:00:00 AM -9.96 14.072 7.48 54.5 -5
9/8/2022 6:15:00 AM -9.96 14.072 7.5 47.76 -5
9/8/2022 6:30:00 AM -9.96 14.072 7.48 47.02 -5
9/8/2022 6:45:00 AM -9.96 14.072 7.5 46.91 -5
9/8/2022 7:00:00 AM -9.96 14.072 7.47 47.24 -5
9/8/2022 7:15:00 AM -9.97 14.054 7.49 46.66 -5
9/8/2022 7:30:00 AM -9.97 14.054 7.48 1.36 -5
9/8/2022 7:45:00 AM -9.96 14.072 7.49 1.46 -5
9/8/2022 8:00:00 AM -9.96 14.072 7.47 1.54 -5
9/8/2022 8:15:00 AM -9.96 14.072 7.48 1.89 -5
9/8/2022 8:30:00 AM -9.96 14.072 7.47 2.13 -5
9/8/2022 8:45:00 AM -9.96 14.072 7.47 2.33 -5
9/8/2022 9:00:00 AM -9.96 14.072 7.48 42.6 -5
9/8/2022 9:15:00 AM -9.96 14.072 7.48 41.2 -5
9/8/2022 9:30:00 AM -9.96 14.072 7.49 41.42 -5
9/8/2022 9:45:00 AM -9.96 14.072 7.49 41.52 -5
9/8/2022 10:00:00 AM -9.96 14.072 7.48 41.46 -5
9/8/2022 10:15:00 AM -9.96 14.072 7.48 41.59 -5
9/8/2022 10:30:00 AM -9.96 14.072 7.47 41.15 -5
9/8/2022 10:45:00 AM -9.96 14.072 7.47 40.97 -5
9/8/2022 11:00:00 AM -9.96 14.072 7.46 40.73 -5
9/8/2022 11:15:00 AM -9.96 14.072 7.46 40.15 -5
9/8/2022 11:30:00 AM -9.96 14.072 7.44 40.16 -5
9/8/2022 11:45:00 AM -9.96 14.072 7.42 40.23 -5
9/8/2022 12:00:00 PM -9.96 14.072 7.4 39.93 -5
9/8/2022 12:15:00 PM -9.96 14.072 7.4 39.89 -5
9/8/2022 12:30:00 PM -9.96 14.072 7.4 40.18 -5
9/8/2022 12:45:00 PM -9.97 14.054 7.4 39.81 -5
9/8/2022 1:00:00 PM -9.96 14.072 7.38 40.32 -5
9/8/2022 1:15:00 PM -9.97 14.054 7.37 39.69 -5
9/8/2022 1:30:00 PM -9.97 14.054 7.36 39.92 -5
9/8/2022 1:45:00 PM -9.96 14.072 7.35 38.55 -5
9/8/2022 2:00:00 PM -9.97 14.054 7.35 39.51 -5
9/8/2022 2:15:00 PM -9.96 14.072 7.34 42.12 -5
9/8/2022 2:30:00 PM -9.96 14.072 7.33 38.8 -5
9/8/2022 2:45:00 PM -9.97 14.054 7.32 38.38 -5
9/8/2022 3:00:00 PM -9.96 14.072 7.31 38.6 -5
9/8/2022 3:15:00 PM -9.96 14.072 7.31 36.27 -5
9/8/2022 3:30:00 PM -9.96 14.072 7.3 38.33 -5
9/8/2022 3:45:00 PM -9.97 14.054 7.3 36.43 -5
9/8/2022 4:00:00 PM -9.96 14.072 7.3 34.86 -5
9/8/2022 4:15:00 PM -9.97 14.054 7.3 34.78 -5
9/8/2022 4:30:00 PM -9.96 14.072 7.3 33.88 -5
9/8/2022 4:45:00 PM -9.96 14.072 7.29 35.07 -5
9/8/2022 5:00:00 PM -9.96 14.072 7.29 33.89 -5
9/8/2022 5:15:00 PM -9.96 14.072 7.3 33.87 -5
9/8/2022 5:30:00 PM -9.96 14.072 7.3 33.79 -5
9/8/2022 5:45:00 PM -9.96 14.072 7.3 35.74 -5
9/8/2022 6:00:00 PM -9.96 14.072 7.3 32.47 -5
9/8/2022 6:15:00 PM -9.96 14.072 7.29 33.38 -5
9/8/2022 6:30:00 PM -9.96 14.072 7.29 34.97 -5
9/8/2022 6:45:00 PM -9.97 14.054 7.29 34.02 -5
9/8/2022 7:00:00 PM -9.96 14.072 7.29 34.59 -5
9/8/2022 7:15:00 PM -9.96 14.072 7.3 34.03 -5
9/8/2022 7:30:00 PM -9.96 14.072 7.3 33.58 -5
9/8/2022 7:45:00 PM -9.97 14.054 7.29 33.6 -5
9/8/2022 8:00:00 PM -9.96 14.072 7.29 34.02 -5
9/8/2022 8:15:00 PM -9.96 14.072 7.29 33.29 -5
9/8/2022 8:30:00 PM -9.97 14.054 7.29 33.28 -5
9/8/2022 8:45:00 PM -9.96 14.072 7.29 32.25 -5
9/8/2022 9:00:00 PM -9.97 14.054 7.3 32.57 -5
9/8/2022 9:15:00 PM -9.96 14.072 7.3 31.04 -5
9/8/2022 9:30:00 PM -9.96 14.072 7.31 30.87 -5
9/8/2022 9:45:00 PM -9.96 14.072 7.31 31.08 -5
9/8/2022 10:00:00 PM -9.96 14.072 7.31 31.53 -5
9/8/2022 10:15:00 PM -9.96 14.072 7.31 30.64 -5
9/8/2022 10:30:00 PM -9.96 14.072 7.31 30.4 -5
9/8/2022 10:45:00 PM -9.96 14.072 7.31 29.82 -5
9/8/2022 11:00:00 PM -9.96 14.072 7.3 30.12 -5
9/8/2022 11:15:00 PM -9.96 14.072 7.3 29.59 -5
9/8/2022 11:30:00 PM -9.96 14.072 7.3 31.52 -5
9/8/2022 11:45:00 PM -9.96 14.072 7.3 29.74 -5
9/9/2022 12:00:00 AM -9.97 14.054 7.3 29.51 -5
9/9/2022 12:15:00 AM -9.96 14.072 7.31 28.79 -5
9/9/2022 12:30:00 AM -9.96 14.072 7.3 28.62 -5
9/9/2022 12:45:00 AM -9.96 14.072 7.3 29.87 -5
9/9/2022 1:00:00 AM -9.97 14.054 7.3 28.42 -5
9/9/2022 1:15:00 AM -9.97 14.054 7.3 29.53 -5
9/9/2022 1:30:00 AM -9.96 14.072 7.31 27.75 -5
9/9/2022 1:45:00 AM -9.97 14.054 7.31 27.87 -5
9/9/2022 2:00:00 AM -9.96 14.072 7.31 27.68 -5
9/9/2022 2:15:00 AM -9.96 14.072 7.31 27.38 -5
9/9/2022 2:30:00 AM -9.96 14.072 7.31 27.62 -5
9/9/2022 2:45:00 AM -9.96 14.072 7.31 27.4 -5
9/9/2022 3:00:00 AM -9.96 14.072 7.31 27.64 -5
9/9/2022 3:15:00 AM -9.96 14.072 7.31 27.29 -5
9/9/2022 3:30:00 AM -9.97 14.054 7.32 26.81 -5
9/9/2022 3:45:00 AM -9.96 14.072 7.32 26.86 -5
9/9/2022 4:00:00 AM -9.96 14.072 7.33 28.83 -5
9/9/2022 4:15:00 AM -9.97 14.054 7.33 26.67 -5
9/9/2022 4:30:00 AM -9.96 14.072 7.34 26.66 -5
9/9/2022 4:45:00 AM -9.96 14.072 7.34 26.34 -5
9/9/2022 5:00:00 AM -9.96 14.072 7.36 26.15 -5
9/9/2022 5:15:00 AM -9.96 14.072 7.39 27.08 -5
9/9/2022 5:30:00 AM -9.97 14.054 7.44 26.33 -5
9/9/2022 5:45:00 AM -9.96 14.072 7.37 25.99 -5
9/9/2022 6:00:00 AM -9.96 14.072 7.33 25.76 -5
9/9/2022 6:15:00 AM -9.96 14.072 7.32 25.77 -5
9/9/2022 6:30:00 AM -9.96 14.072 7.33 26.24 -5
9/9/2022 6:45:00 AM -9.96 14.072 7.3 25.9 -5
9/9/2022 7:00:00 AM -9.96 14.072 7.33 26.06 -5
9/9/2022 7:15:00 AM -9.96 14.072 7.31 28.22 -5
9/9/2022 7:30:00 AM -9.96 14.072 7.33 30.17 -5
9/9/2022 7:45:00 AM -9.96 14.072 7.32 26.04 -5
9/9/2022 8:00:00 AM -9.96 14.072 7.31 25.83 -5
9/9/2022 8:15:00 AM -9.96 14.072 7.34 26.16 -5
9/9/2022 8:30:00 AM -9.96 14.072 7.32 25.9 -5
9/9/2022 8:45:00 AM -9.97 14.054 7.36 26.08 -5
9/9/2022 9:00:00 AM -9.96 14.072 7.35 26.15 -5
9/9/2022 9:15:00 AM -9.96 14.072 7.36 26.35 -5
9/9/2022 9:30:00 AM -9.96 14.072 7.37 26.2 -5
9/9/2022 9:45:00 AM -9.96 14.072 7.34 26.2 -5
9/9/2022 10:00:00 AM -9.96 14.072 7.37 26.2 -5
9/9/2022 10:15:00 AM -9.96 14.072 7.37 26.21 -5
9/9/2022 10:30:00 AM -9.97 14.054 7.38 26.41 -5
9/9/2022 10:45:00 AM -9.97 14.054 7.38 26.37 -5
9/9/2022 11:00:00 AM -9.96 14.072 7.38 26.19 -5
9/9/2022 11:15:00 AM -9.96 14.072 7.37 25.98 -5
9/9/2022 11:30:00 AM -9.97 14.054 7.36 25.98 -5
9/9/2022 11:45:00 AM -9.96 14.072 7.35 25.95 -5
9/9/2022 12:00:00 PM -9.96 14.072 7.33 26.42 -5
9/9/2022 12:15:00 PM -9.96 14.072 7.31 26.21 -5
9/9/2022 12:30:00 PM -9.97 14.054 7.28 26.26 -5
9/9/2022 12:45:00 PM -9.97 14.054 7.26 26.44 -5
9/9/2022 1:00:00 PM -9.96 14.072 7.24 26.3 -5
9/9/2022 1:15:00 PM -9.96 14.072 7.23 26.65 -5
9/9/2022 1:30:00 PM -9.97 14.054 7.23 27.07 -5
9/9/2022 1:45:00 PM -9.96 14.072 7.22 26.74 -5
9/9/2022 2:00:00 PM -9.96 14.072 7.22 26.54 -5
9/9/2022 2:15:00 PM -9.96 14.072 7.2 26.83 -5
9/9/2022 2:30:00 PM -9.96 14.072 7.18 26.88 -5
9/9/2022 2:45:00 PM -9.96 14.072 7.18 27.12 -5
9/9/2022 3:00:00 PM -9.96 14.072 7.17 26.82 -5
9/9/2022 3:15:00 PM -9.96 14.072 7.17 26.6 -5
9/9/2022 3:30:00 PM -9.96 14.072 7.16 26.66 -5
9/9/2022 3:45:00 PM -9.96 14.072 7.16 26.4 -5
9/9/2022 4:00:00 PM -9.96 14.072 7.15 26.85 -5
9/9/2022 4:15:00 PM -9.96 14.072 7.15 26.55 -5
9/9/2022 4:30:00 PM -9.97 14.054 7.14 26.6 -5
9/9/2022 4:45:00 PM -9.96 14.072 7.14 25.74 -5
9/9/2022 5:00:00 PM -9.97 14.054 7.14 25.65 -5
9/9/2022 5:15:00 PM -9.97 14.054 7.14 25.6 -5
9/9/2022 5:30:00 PM -9.96 14.072 7.14 25.94 -5
9/9/2022 5:45:00 PM -9.96 14.072 7.14 25.76 -5
9/9/2022 6:00:00 PM -9.96 14.072 7.14 25.52 -5
9/9/2022 6:15:00 PM -9.96 14.072 7.14 25.55 -5
9/9/2022 6:30:00 PM -9.96 14.072 7.14 25.74 -5
9/9/2022 6:45:00 PM -9.96 14.072 7.14 25.25 -5
9/9/2022 7:00:00 PM -9.96 14.072 7.15 25.34 -5
9/9/2022 7:15:00 PM -9.96 14.072 7.16 25.12 -5
9/9/2022 7:30:00 PM -9.96 14.072 7.17 24.87 -5
9/9/2022 7:45:00 PM -9.97 14.054 7.17 25.9 -5
9/9/2022 8:00:00 PM -9.97 14.054 7.17 24.74 -5
9/9/2022 8:15:00 PM -9.97 14.054 7.18 24.89 -5
9/9/2022 8:30:00 PM -9.96 14.072 7.18 25.22 -5
9/9/2022 8:45:00 PM -9.96 14.072 7.19 25.26 -5
9/9/2022 9:00:00 PM -9.96 14.072 7.2 24.61 -5
9/9/2022 9:15:00 PM -9.96 14.072 7.2 24.63 -5
9/9/2022 9:30:00 PM -9.96 14.072 7.21 23.93 -5
9/9/2022 9:45:00 PM -9.96 14.072 7.21 24.25 -5
9/9/2022 10:00:00 PM -9.96 14.072 7.22 23.63 -5
9/9/2022 10:15:00 PM -9.97 14.054 7.22 23.65 -5
9/9/2022 10:30:00 PM -9.96 14.072 7.23 23.37 -5
9/9/2022 10:45:00 PM -9.96 14.072 7.24 23.32 -5
9/9/2022 11:00:00 PM -9.97 14.054 7.24 24.04 -5
9/9/2022 11:15:00 PM -9.96 14.072 7.24 23.45 -5
9/9/2022 11:30:00 PM -9.96 14.072 7.24 23.93 -5
9/9/2022 11:45:00 PM -9.96 14.072 7.24 23.91 -5
9/10/2022 12:00:00 AM -9.96 14.072 7.24 23.77 -5
9/10/2022 12:15:00 AM -9.96 14.072 7.25 23.43 -5
9/10/2022 12:30:00 AM -9.96 14.072 7.26 23.44 -5
9/10/2022 12:45:00 AM -9.96 14.072 7.26 23.42 -5
9/10/2022 1:00:00 AM -9.97 14.054 7.27 23.37 -5
9/10/2022 1:15:00 AM -9.96 14.072 7.27 23 -5
9/10/2022 1:30:00 AM -9.97 14.054 7.28 23.06 -5
9/10/2022 1:45:00 AM -9.96 14.072 7.28 23.11 -5
9/10/2022 2:00:00 AM -9.96 14.072 7.28 22.9 -5
9/10/2022 2:15:00 AM -9.97 14.054 7.3 22.87 -5
9/10/2022 2:30:00 AM -9.96 14.072 7.31 22.57 -5
9/10/2022 2:45:00 AM -9.96 14.072 7.34 22.53 -5
9/10/2022 3:00:00 AM -9.96 14.072 7.39 22.5 -5
9/10/2022 3:15:00 AM -9.96 14.072 7.31 22.11 -5
9/10/2022 3:30:00 AM -9.96 14.072 7.29 21.71 -5
9/10/2022 3:45:00 AM -9.96 14.072 7.29 22.4 -5
9/10/2022 4:00:00 AM -9.96 14.072 7.26 22.19 -5
9/10/2022 4:15:00 AM -9.96 14.072 7.29 21.65 -5
9/10/2022 4:30:00 AM -9.96 14.072 7.26 21.68 -5
9/10/2022 4:45:00 AM -9.96 14.072 7.27 21.73 -5
9/10/2022 5:00:00 AM -9.96 14.072 7.27 21.73 -5
9/10/2022 5:15:00 AM -9.96 14.072 7.26 21.59 -5
9/10/2022 5:30:00 AM -9.96 14.072 7.29 21.48 -5
9/10/2022 5:45:00 AM -9.96 14.072 7.26 20.7 -5
9/10/2022 6:00:00 AM -9.96 14.072 7.29 21.03 -5
9/10/2022 6:15:00 AM -9.96 14.072 7.26 20.79 -5
9/10/2022 6:30:00 AM -9.96 14.072 7.28 20.92 -5
9/10/2022 6:45:00 AM -9.96 14.072 7.26 20.92 -5
9/10/2022 7:00:00 AM -9.96 14.072 7.25 21.39 -5
9/10/2022 7:15:00 AM -9.96 14.072 7.27 21.3 -5
9/10/2022 7:30:00 AM -9.96 14.072 7.23 21.8 -5
9/10/2022 7:45:00 AM -9.96 14.072 7.26 22.07 -5
9/10/2022 8:00:00 AM -9.96 14.072 7.24 22.24 -5
9/10/2022 8:15:00 AM -9.96 14.072 7.26 21.48 -5
9/10/2022 8:30:00 AM -9.96 14.072 7.28 21.86 -5
9/10/2022 8:45:00 AM -9.96 14.072 7.27 21.33 -5
9/10/2022 9:00:00 AM -9.96 14.072 7.3 21.4 -5
9/10/2022 9:15:00 AM -9.96 14.072 7.26 21.21 -5
9/10/2022 9:30:00 AM -9.96 14.072 7.27 21.57 -5
9/10/2022 9:45:00 AM -9.96 14.072 7.26 21.27 -5
9/10/2022 10:00:00 AM -9.96 14.072 7.25 21.12 -5
9/10/2022 10:15:00 AM -9.96 14.072 7.26 21.31 -5
9/10/2022 10:30:00 AM -9.96 14.072 7.25 21.22 -5
9/10/2022 10:45:00 AM -9.96 14.072 7.29 21.15 -5
9/10/2022 11:00:00 AM -9.96 14.072 7.29 21.02 -5
9/10/2022 11:15:00 AM -9.96 14.072 7.29 21.16 -5
9/10/2022 11:30:00 AM -9.96 14.072 7.29 21.21 -5
9/10/2022 11:45:00 AM -9.96 14.072 7.28 21.39 -5
9/10/2022 12:00:00 PM -9.96 14.072 7.27 21.19 -5
9/10/2022 12:15:00 PM -9.96 14.072 7.24 21.14 -5
9/10/2022 12:30:00 PM -9.96 14.072 7.22 21.39 -5
9/10/2022 12:45:00 PM -9.96 14.072 7.19 21.51 -5
9/10/2022 1:00:00 PM -9.96 14.072 7.17 21.72 -5
9/10/2022 1:15:00 PM -9.96 14.072 7.15 21.62 -5
9/10/2022 1:30:00 PM -9.96 14.072 7.14 21.68 -5
9/10/2022 1:45:00 PM -9.96 14.072 7.13 21.9 -5
9/10/2022 2:00:00 PM -9.96 14.072 7.12 22.02 -5
9/10/2022 2:15:00 PM -9.96 14.072 7.12 22.08 -5
9/10/2022 2:30:00 PM -9.96 14.072 7.12 21.7 -5
9/10/2022 2:45:00 PM -9.96 14.072 7.12 22.2 -5
9/10/2022 3:00:00 PM -9.96 14.072 7.12 22.47 -5
9/10/2022 3:15:00 PM -9.96 14.072 7.12 22.36 -5
9/10/2022 3:30:00 PM -9.96 14.072 7.13 23.32 -5
9/10/2022 3:45:00 PM -9.96 14.072 7.12 22.39 -5
9/10/2022 4:00:00 PM -9.96 14.072 7.12 22.38 -5
9/10/2022 4:15:00 PM -9.96 14.072 7.11 22.21 -5
9/10/2022 4:30:00 PM -9.96 14.072 7.11 22.17 -5
9/10/2022 4:45:00 PM -9.96 14.072 7.11 22.24 -5
9/10/2022 5:00:00 PM -9.96 14.072 7.11 22.34 -5
9/10/2022 5:15:00 PM -9.96 14.072 7.1 22.45 -5
9/10/2022 5:30:00 PM -9.96 14.072 7.1 22.39 -5
9/10/2022 5:45:00 PM -9.96 14.072 7.1 22.77 -5
9/10/2022 6:00:00 PM -9.97 14.054 7.1 22.97 -5
9/10/2022 6:15:00 PM -9.97 14.054 7.1 22.66 -5
9/10/2022 6:30:00 PM -9.96 14.072 7.1 22.97 -5
9/10/2022 6:45:00 PM -9.96 14.072 7.1 22.72 -5
9/10/2022 7:00:00 PM -9.96 14.072 7.1 22.91 -5
9/10/2022 7:15:00 PM -9.96 14.072 7.1 22.87 -5
9/10/2022 7:30:00 PM -9.96 14.072 7.1 22.85 -5
9/10/2022 7:45:00 PM -9.96 14.072 7.1 28.34 -5
9/10/2022 8:00:00 PM -9.97 14.054 7.1 22.09 -5
9/10/2022 8:15:00 PM -9.96 14.072 7.11 22.25 -5
9/10/2022 8:30:00 PM -9.96 14.072 7.11 21.35 -5
9/10/2022 8:45:00 PM -9.96 14.072 7.11 21.11 -5
9/10/2022 9:00:00 PM -9.96 14.072 7.11 21.19 -5
9/10/2022 9:15:00 PM -9.96 14.072 7.11 20.79 -5
9/10/2022 9:30:00 PM -9.96 14.072 7.11 20.81 -5
9/10/2022 9:45:00 PM -9.97 14.054 7.12 21.79 -5
9/10/2022 10:00:00 PM -9.96 14.072 7.12 21.09 -5
9/10/2022 10:15:00 PM -9.96 14.072 7.12 20.91 -5
9/10/2022 10:30:00 PM -9.96 14.072 7.13 20.6 -5
9/10/2022 10:45:00 PM -9.96 14.072 7.13 18.92 -5
9/10/2022 11:00:00 PM -9.96 14.072 7.13 19.73 -5
9/10/2022 11:15:00 PM -9.96 14.072 7.14 20.85 -5
9/10/2022 11:30:00 PM -9.96 14.072 7.14 21.73 -5
9/10/2022 11:45:00 PM -9.96 14.072 7.14 21.34 -5
9/11/2022 12:00:00 AM -9.96 14.072 7.15 21.8 -5
9/11/2022 12:15:00 AM -9.96 14.072 7.15 20.57 -5
9/11/2022 12:30:00 AM -9.96 14.072 7.16 20.28 -5
9/11/2022 12:45:00 AM -9.96 14.072 7.16 20.35 -5
9/11/2022 1:00:00 AM -9.97 14.054 7.16 20.19 -5
9/11/2022 1:15:00 AM -9.96 14.072 7.17 20.1 -5
9/11/2022 1:30:00 AM -9.97 14.054 7.17 19.79 -5
9/11/2022 1:45:00 AM -9.96 14.072 7.18 19.89 -5
9/11/2022 2:00:00 AM -9.96 14.072 7.19 19.95 -5
9/11/2022 2:15:00 AM -9.96 14.072 7.2 20.03 -5
9/11/2022 2:30:00 AM -9.96 14.072 7.23 19.97 -5
9/11/2022 2:45:00 AM -9.96 14.072 7.25 19.5 -5
9/11/2022 3:00:00 AM -9.96 14.072 7.23 19.45 -5
9/11/2022 3:15:00 AM -9.96 14.072 7.22 19.38 -5
9/11/2022 3:30:00 AM -9.96 14.072 7.15 19.77 -5
9/11/2022 3:45:00 AM -9.96 14.072 7.18 19.66 -5
9/11/2022 4:00:00 AM -9.96 14.072 7.15 19.46 -5
9/11/2022 4:15:00 AM -9.96 14.072 7.15 19.38 -5
9/11/2022 4:30:00 AM -9.96 14.072 7.16 19.44 -5
9/11/2022 4:45:00 AM -9.96 14.072 7.14 19.27 -5
9/11/2022 5:00:00 AM -9.96 14.072 7.17 19.34 -5
9/11/2022 5:15:00 AM -9.96 14.072 7.14 18.94 -5
9/11/2022 5:30:00 AM -9.96 14.072 7.15 19.1 -5
9/11/2022 5:45:00 AM -9.96 14.072 7.16 19 -5
9/11/2022 6:00:00 AM -9.96 14.072 7.13 18.9 -5
9/11/2022 6:15:00 AM -9.96 14.072 7.16 18.99 -5
9/11/2022 6:30:00 AM -9.96 14.072 7.13 19.16 -5
9/11/2022 6:45:00 AM -9.96 14.072 7.15 19.17 -5
9/11/2022 7:00:00 AM -9.96 14.072 7.13 19.07 -5
9/11/2022 7:15:00 AM -9.96 14.072 7.15 19.37 -5
9/11/2022 7:30:00 AM -9.96 14.072 7.15 19.15 -5
9/11/2022 7:45:00 AM -9.96 14.072 7.14 19.2 -5
9/11/2022 8:00:00 AM -9.96 14.072 7.17 18.8 -5
9/11/2022 8:15:00 AM -9.96 14.072 7.14 18.16 -5
9/11/2022 8:30:00 AM -9.96 14.072 7.17 18.37 -5
9/11/2022 8:45:00 AM -9.96 14.072 7.14 18.64 -5
9/11/2022 9:00:00 AM -9.96 14.072 7.15 18.64 -5
9/11/2022 9:15:00 AM -9.96 14.072 7.14 19.1 -5
9/11/2022 9:30:00 AM -9.96 14.072 7.15 18.52 -5
9/11/2022 9:45:00 AM -9.96 14.072 7.17 19.67 -5
9/11/2022 10:00:00 AM -9.96 14.072 7.15 18.59 -5
9/11/2022 10:15:00 AM -9.96 14.072 7.18 18.6 -5
9/11/2022 10:30:00 AM -9.96 14.072 7.15 18.98 -5
9/11/2022 10:45:00 AM -9.96 14.072 7.19 18.8 -5
9/11/2022 11:00:00 AM -9.96 14.072 7.18 18.58 -5
9/11/2022 11:15:00 AM -9.96 14.072 7.19 18.71 -5
9/11/2022 11:30:00 AM -9.96 14.072 7.18 18.81 -5
9/11/2022 11:45:00 AM -9.96 14.072 7.19 18.91 -5
9/11/2022 12:00:00 PM -9.96 14.072 7.2 18.98 -5
9/11/2022 12:15:00 PM -9.96 14.072 7.19 19.09 -5
9/11/2022 12:30:00 PM -9.96 14.072 7.2 18.97 -5
9/11/2022 12:45:00 PM -9.96 14.072 7.19 19.11 -5
9/11/2022 1:00:00 PM -9.96 14.072 7.21 20.52 -5
9/11/2022 1:15:00 PM -9.96 14.072 7.18 19.3 -5
9/11/2022 1:30:00 PM -9.96 14.072 7.2 19.85 -5
9/11/2022 1:45:00 PM -9.96 14.072 7.18 20.39 -5
9/11/2022 2:00:00 PM -9.96 14.072 7.2 20.66 -5
9/11/2022 2:15:00 PM -9.96 14.072 7.2 21.02 -5
9/11/2022 2:30:00 PM -9.96 14.072 7.2 21.25 -5
9/11/2022 2:45:00 PM -9.96 14.072 7.21 22.18 -5
9/11/2022 3:00:00 PM -9.96 14.072 7.21 21.25 -5
9/11/2022 3:15:00 PM -9.96 14.072 7.21 21.05 -5
9/11/2022 3:30:00 PM -9.96 14.072 7.21 21.09 -5
9/11/2022 3:45:00 PM -9.96 14.072 7.22 20.67 -5
9/11/2022 4:00:00 PM -9.96 14.072 7.2 20.29 -5
9/11/2022 4:15:00 PM -9.96 14.072 7.22 20.44 -5
9/11/2022 4:30:00 PM -9.96 14.072 7.2 20.32 -5
9/11/2022 4:45:00 PM -9.96 14.072 7.22 20.41 -5
9/11/2022 5:00:00 PM -9.96 14.072 7.21 20.89 -5
9/11/2022 5:15:00 PM -9.96 14.072 7.23 20.35 -5
9/11/2022 5:30:00 PM -9.96 14.072 7.22 20.01 -5
9/11/2022 5:45:00 PM -9.96 14.072 7.22 19.77 -5
9/11/2022 6:00:00 PM -9.96 14.072 7.23 19.79 -5
9/11/2022 6:15:00 PM -9.96 14.072 7.22 19.36 -5
9/11/2022 6:30:00 PM -9.96 14.072 7.23 19.67 -5
9/11/2022 6:45:00 PM -9.96 14.072 7.2 19.94 -5
9/11/2022 7:00:00 PM -9.96 14.072 7.22 19.33 -5
9/11/2022 7:15:00 PM -9.96 14.072 7.19 19.34 -5
9/11/2022 7:30:00 PM -9.96 14.072 7.22 19.51 -5
9/11/2022 7:45:00 PM -9.96 14.072 7.22 19.47 -5
9/11/2022 8:00:00 PM -9.96 14.072 7.23 19.71 -5
9/11/2022 8:15:00 PM -9.96 14.072 7.23 19.58 -5
9/11/2022 8:30:00 PM -9.96 14.072 7.23 19.35 -5
9/11/2022 8:45:00 PM -9.96 14.072 7.23 19.16 -5
9/11/2022 9:00:00 PM -9.96 14.072 7.23 19.12 -5
9/11/2022 9:15:00 PM -9.96 14.072 7.24 19.08 -5
9/11/2022 9:30:00 PM -9.96 14.072 7.23 19.9 -5
9/11/2022 9:45:00 PM -9.96 14.072 7.25 19.57 -5
9/11/2022 10:00:00 PM -9.96 14.072 7.25 19.39 -5
9/11/2022 10:15:00 PM -9.96 14.072 7.25 19.13 -5
9/11/2022 10:30:00 PM -9.96 14.072 7.24 19.06 -5
9/11/2022 10:45:00 PM -9.96 14.072 7.24 18.78 -5
9/11/2022 11:00:00 PM -9.96 14.072 7.24 18.52 -5
9/11/2022 11:15:00 PM -9.96 14.072 7.23 18.44 -5
9/11/2022 11:30:00 PM -9.96 14.072 7.24 18.23 -5
9/11/2022 11:45:00 PM -9.96 14.072 7.22 18.27 -5
9/12/2022 12:00:00 AM -9.96 14.072 7.24 18.29 -5
9/12/2022 12:15:00 AM -9.96 14.072 7.21 18.35 -5
9/12/2022 12:30:00 AM -9.96 14.072 7.22 18.18 -5
9/12/2022 12:45:00 AM -9.96 14.072 7.2 17.81 -5
9/12/2022 1:00:00 AM -9.96 14.072 7.21 17.7 -5
9/12/2022 1:15:00 AM -9.96 14.072 7.21 17.94 -5
9/12/2022 1:30:00 AM -9.96 14.072 7.2 17.75 -5
9/12/2022 1:45:00 AM -9.96 14.072 7.22 17.77 -5
9/12/2022 2:00:00 AM -9.96 14.072 7.2 17.62 -5
9/12/2022 2:15:00 AM -9.96 14.072 7.23 17.55 -5
9/12/2022 2:30:00 AM -9.96 14.072 7.2 17.46 -5
9/12/2022 2:45:00 AM -9.96 14.072 7.22 17.38 -5
9/12/2022 3:00:00 AM -9.96 14.072 7.23 17.84 -5
9/12/2022 3:15:00 AM -9.96 14.072 7.22 18.76 -5
9/12/2022 3:30:00 AM -9.96 14.072 7.24 17.29 -5
9/12/2022 3:45:00 AM -9.96 14.072 7.21 17.29 -5
9/12/2022 4:00:00 AM -9.96 14.072 7.23 17.05 -5
9/12/2022 4:15:00 AM -9.96 14.072 7.22 17.43 -5
9/12/2022 4:30:00 AM -9.96 14.072 7.23 17.05 -5
9/12/2022 4:45:00 AM -9.96 14.072 7.23 16.87 -5
9/12/2022 5:00:00 AM -9.96 14.072 7.22 17.08 -5
9/12/2022 5:15:00 AM -9.96 14.072 7.23 16.94 -5
9/12/2022 5:30:00 AM -9.96 14.072 7.21 17.16 -5
9/12/2022 5:45:00 AM -9.96 14.072 7.22 16.66 -5
9/12/2022 6:00:00 AM -9.96 14.072 7.21 16.72 -5
9/12/2022 6:15:00 AM -9.96 14.072 7.21 16.92 -5
9/12/2022 6:30:00 AM -9.96 14.072 7.22 16.86 -5
9/12/2022 6:45:00 AM -9.96 14.072 7.2 16.83 -5
9/12/2022 7:00:00 AM -9.96 14.072 7.22 16.7 -5
9/12/2022 7:15:00 AM -9.96 14.072 7.21 16.68 -5
9/12/2022 7:30:00 AM -9.96 14.072 7.21 16.98 -5
9/12/2022 7:45:00 AM -9.96 14.072 7.22 16.81 -5
9/12/2022 8:00:00 AM -9.96 14.072 7.31 16.12 -5
9/12/2022 8:15:00 AM -9.96 14.072 7.33 15.96 -5
9/12/2022 8:30:00 AM -9.96 14.072 7.32 15.85 -5
9/12/2022 8:45:00 AM -9.96 14.072 7.33 16.03 -5
9/12/2022 9:00:00 AM -9.96 14.072 7.33 15.92 -5
9/12/2022 9:15:00 AM -9.96 14.072 7.33 15.79 -5
9/12/2022 9:30:00 AM -9.96 14.072 7.34 15.51 -5
9/12/2022 9:45:00 AM -9.96 14.072 7.34 15.59 -5
9/12/2022 10:00:00 AM -9.96 14.072 7.34 15.66 -5
9/12/2022 10:15:00 AM -9.96 14.072 7.35 15.61 -5
9/12/2022 10:30:00 AM -9.96 14.072 7.35 15.62 -5
9/12/2022 10:45:00 AM -9.96 14.072 7.36 15.76 -5
9/12/2022 11:00:00 AM -9.96 14.072 7.37 15.53 -5
9/12/2022 11:15:00 AM -9.96 14.072 7.37 15.58 -5
9/12/2022 11:30:00 AM -9.96 14.072 7.37 15.23 -5
9/12/2022 11:45:00 AM -9.96 14.072 7.37 15.58 -5
9/12/2022 12:00:00 PM -9.96 14.072 7.37 15.26 -5
9/12/2022 12:15:00 PM -9.96 14.072 7.37 15.45 -5
9/12/2022 12:30:00 PM -9.96 14.072 7.37 15.54 -5
9/12/2022 12:45:00 PM -9.96 14.072 7.36 15.56 -5
9/12/2022 1:00:00 PM -9.96 14.072 7.36 15.3 -5
9/12/2022 1:15:00 PM -9.96 14.072 7.35 14.84 -5
9/12/2022 1:30:00 PM -9.96 14.072 7.34 14.87 -5
9/12/2022 1:45:00 PM -9.96 14.072 7.33 14.96 -5
9/12/2022 2:00:00 PM -9.96 14.072 7.33 14.95 -5
9/12/2022 2:15:00 PM -9.96 14.072 7.32 14.71 -5
9/12/2022 2:30:00 PM -9.96 14.072 7.32 14.85 -5
9/12/2022 2:45:00 PM -9.96 14.072 7.31 14.9 -5
9/12/2022 3:00:00 PM -9.96 14.072 7.31 14.97 -5
9/12/2022 3:15:00 PM -9.96 14.072 7.31 14.93 -5
9/12/2022 3:30:00 PM -9.96 14.072 7.32 15.1 -5
9/12/2022 3:45:00 PM -9.96 14.072 7.32 15.12 -5
9/12/2022 4:00:00 PM -9.96 14.072 7.32 15.08 -5
9/12/2022 4:15:00 PM -9.96 14.072 7.32 15.28 -5
9/12/2022 4:30:00 PM -9.96 14.072 7.33 15.1 -5
9/12/2022 4:45:00 PM -9.96 14.072 7.33 15.31 -5
9/12/2022 5:00:00 PM -9.96 14.072 7.34 15.48 -5
9/12/2022 5:15:00 PM -9.96 14.072 7.35 15.25 -5
9/12/2022 5:30:00 PM -9.96 14.072 7.35 15.15 -5
9/12/2022 5:45:00 PM -9.96 14.072 7.36 15.18 -5
9/12/2022 6:00:00 PM -9.96 14.072 7.37 15.1 -5
9/12/2022 6:15:00 PM -9.96 14.072 7.38 14.98 -5
9/12/2022 6:30:00 PM -9.96 14.072 7.39 14.87 -5
9/12/2022 6:45:00 PM -9.96 14.072 7.39 14.98 -5
9/12/2022 7:00:00 PM -9.96 14.072 7.4 14.85 -5
9/12/2022 7:15:00 PM -9.96 14.072 7.4 14.98 -5
9/12/2022 7:30:00 PM -9.96 14.072 7.4 14.99 -5
9/12/2022 7:45:00 PM -9.96 14.072 7.38 16.05 -5
9/12/2022 8:00:00 PM -9.96 14.072 7.39 15.35 -5
9/12/2022 8:15:00 PM -9.96 14.072 7.4 14.76 -5
9/12/2022 8:30:00 PM -9.96 14.072 7.4 14.8 -5
9/12/2022 8:45:00 PM -9.96 14.072 7.41 14.86 -5
9/12/2022 9:00:00 PM -9.96 14.072 7.41 14.75 -5
9/12/2022 9:15:00 PM 50.14 122.252 7.39 15.63 -5
9/12/2022 9:30:00 PM 50.14 122.252 7.4 15.16 -5
9/12/2022 9:45:00 PM 50.14 122.252 7.41 14.68 -5
9/12/2022 10:00:00 PM 50.14 122.252 7.42 14.49 -5
9/12/2022 10:15:00 PM 50.15 122.27 7.42 13.82 -5
9/12/2022 10:30:00 PM 50.15 122.27 7.41 14.47 -5
9/12/2022 10:45:00 PM 50.15 122.27 7.42 14.11 -5
9/12/2022 11:00:00 PM 50.14 122.252 7.42 14.37 -5
9/12/2022 11:15:00 PM 50.14 122.252 7.43 14.48 -5
9/12/2022 11:30:00 PM 50.14 122.252 7.42 13.84 -5
9/12/2022 11:45:00 PM 50.16 122.288 7.43 13.94 -5
9/13/2022 12:00:00 AM 50.16 122.288 7.43 13.75 -5
9/13/2022 12:15:00 AM 50.15 122.27 7.42 13.85 -5
9/13/2022 12:30:00 AM 50.16 122.288 7.42 13.74 -5
9/13/2022 12:45:00 AM 50.15 122.27 7.43 13.72 -5
9/13/2022 1:00:00 AM 50.15 122.27 7.43 13.53 -5
9/13/2022 1:15:00 AM 50.16 122.288 7.43 13.25 -5
9/13/2022 1:30:00 AM 50.16 122.288 7.43 13.47 -5
9/13/2022 1:45:00 AM 50.15 122.27 7.43 13.36 -5
9/13/2022 2:00:00 AM 50.16 122.288 7.43 13.48 -5
9/13/2022 2:15:00 AM 50.15 122.27 7.42 13.36 -5
9/13/2022 2:30:00 AM 50.15 122.27 7.43 13 -5
9/13/2022 2:45:00 AM 50.15 122.27 7.42 13.12 -5
9/13/2022 3:00:00 AM 50.15 122.27 7.42 13.43 -5
9/13/2022 3:15:00 AM 50.15 122.27 7.42 12.86 -5
9/13/2022 3:30:00 AM 50.16 122.288 7.42 13.01 -5
9/13/2022 3:45:00 AM 50.15 122.27 7.41 13.27 -5
9/13/2022 4:00:00 AM 50.16 122.288 7.41 13.1 -5
9/13/2022 4:15:00 AM 50.15 122.27 7.41 12.84 -5
9/13/2022 4:30:00 AM 50.15 122.27 7.41 12.77 -5
9/13/2022 4:45:00 AM 50.16 122.288 7.41 12.86 -5
9/13/2022 5:00:00 AM 50.15 122.27 7.41 12.97 -5
9/13/2022 5:15:00 AM 50.16 122.288 7.42 12.86 -5
9/13/2022 5:30:00 AM 50.16 122.288 7.42 12.78 -5
9/13/2022 5:45:00 AM 50.16 122.288 7.42 13.06 -5
9/13/2022 6:00:00 AM 50.16 122.288 7.43 13.04 -5
9/13/2022 6:15:00 AM 50.16 122.288 7.42 13.13 -5
9/13/2022 6:30:00 AM 50.15 122.27 7.42 13.22 -5
9/13/2022 6:45:00 AM 50.16 122.288 7.43 13.12 -5
9/13/2022 7:00:00 AM 50.14 122.252 7.43 13.89 -5
9/13/2022 7:15:00 AM 50.15 122.27 7.43 12.13 -5
9/13/2022 7:30:00 AM 50.16 122.288 7.43 12.2 -5
9/13/2022 7:45:00 AM 50.16 122.288 7.43 12.38 -5
9/13/2022 8:00:00 AM 50.16 122.288 7.44 12.11 -5
9/13/2022 8:15:00 AM 50.15 122.27 7.44 11.99 -5
9/13/2022 8:30:00 AM 50.15 122.27 7.45 12 -5
9/13/2022 8:45:00 AM 50.14 122.252 7.44 12.35 -5
9/13/2022 9:00:00 AM 50.16 122.288 7.44 11.89 -5
9/13/2022 9:15:00 AM 50.15 122.27 7.44 11.78 -5
9/13/2022 9:30:00 AM 50.15 122.27 7.44 11.53 -5
9/13/2022 9:45:00 AM 50.15 122.27 7.45 11.31 -5
9/13/2022 10:00:00 AM 50.15 122.27 7.44 11.52 -5
9/13/2022 10:15:00 AM 50.16 122.288 7.44 11.22 -5
9/13/2022 10:30:00 AM 50.14 122.252 7.44 11.51 -5
9/13/2022 10:45:00 AM 50.14 122.252 7.44 11.17 -5
9/13/2022 11:00:00 AM 50.16 122.288 7.45 11.1 -5
9/13/2022 11:15:00 AM 50.15 122.27 7.45 10.62 -5
9/13/2022 11:30:00 AM 50.16 122.288 7.45 9.25 -5
9/13/2022 11:45:00 AM 50.16 122.288 7.44 8.36 -5
9/13/2022 12:00:00 PM 50.15 122.27 7.44 8.23 -5
9/13/2022 12:15:00 PM 50.16 122.288 7.44 8.23 -5
9/13/2022 12:30:00 PM -9.96 14.072 7.43 8.31 -5
9/13/2022 12:45:00 PM -9.96 14.072 7.43 8.28 -5
9/13/2022 1:00:00 PM -9.96 14.072 7.44 8.29 -5
9/13/2022 1:15:00 PM 50.15 122.27 7.44 8.24 -5
9/13/2022 1:30:00 PM -9.96 14.072 7.45 8.13 -5
9/13/2022 1:45:00 PM 50.15 122.27 7.46 8.87 -5
9/13/2022 2:00:00 PM 50.14 122.252 7.46 9.06 -5
9/13/2022 2:15:00 PM 50.16 122.288 7.47 8.92 -5
9/13/2022 2:30:00 PM 50.15 122.27 7.47 8.81 -5
9/13/2022 2:45:00 PM 50.15 122.27 7.47 10.08 -5
9/13/2022 3:00:00 PM 50.16 122.288 7.48 11.07 -5
9/13/2022 3:15:00 PM -9.96 14.072 7.49 10.56 -5
9/13/2022 3:30:00 PM -9.96 14.072 7.57 10.21 -5
9/13/2022 3:45:00 PM -9.96 14.072 7.68 10.12 -5
9/13/2022 4:00:00 PM -9.96 14.072 7.73 10.13 -5
9/13/2022 4:15:00 PM 50.15 122.27 7.76 10.47 -5
9/13/2022 4:30:00 PM 50.16 122.288 7.75 10.21 -5
9/13/2022 4:45:00 PM 50.16 122.288 7.72 9.61 -5
9/13/2022 5:00:00 PM 50.16 122.288 7.68 9.84 -5
9/13/2022 5:15:00 PM 50.15 122.27 7.68 9.96 -5
9/13/2022 5:30:00 PM 50.15 122.27 7.65 9.07 -5
9/13/2022 5:45:00 PM 50.15 122.27 7.65 9.61 -5
9/13/2022 6:00:00 PM 50.16 122.288 7.63 9.31 -5
9/13/2022 6:15:00 PM -9.96 14.072 7.62 9.23 -5
9/13/2022 6:30:00 PM -9.96 14.072 7.63 9.35 -5
9/13/2022 6:45:00 PM -9.96 14.072 7.63 9.35 -5
9/13/2022 7:00:00 PM -9.96 14.072 7.63 9.09 -5
9/13/2022 7:15:00 PM -9.96 14.072 7.63 9.75 -5
9/13/2022 7:30:00 PM -9.96 14.072 7.64 10.25 -5
9/13/2022 7:45:00 PM -9.96 14.072 7.63 15.01 -5
9/13/2022 8:00:00 PM -9.96 14.072 7.63 14.26 -5
9/13/2022 8:15:00 PM -9.96 14.072 7.64 11.63 -5
9/13/2022 8:30:00 PM -9.96 14.072 7.66 11.5 -5
9/13/2022 8:45:00 PM -9.96 14.072 7.66 11.51 -5
9/13/2022 9:00:00 PM -9.96 14.072 7.67 11.42 -5
9/13/2022 9:15:00 PM -9.96 14.072 7.67 11.4 -5
9/13/2022 9:30:00 PM -9.96 14.072 7.67 12.26 -5
9/13/2022 9:45:00 PM -9.96 14.072 7.69 11.71 -5
9/13/2022 10:00:00 PM 50.15 122.27 7.69 11.52 -5
9/13/2022 10:15:00 PM 50.16 122.288 7.7 11.38 -5
9/13/2022 10:30:00 PM 50.15 122.27 7.71 11.34 -5
9/13/2022 10:45:00 PM 50.15 122.27 7.72 11.31 -5
9/13/2022 11:00:00 PM 50.16 122.288 7.73 11.61 -5
9/13/2022 11:15:00 PM 50.15 122.27 7.74 11.5 -5
9/13/2022 11:30:00 PM 50.16 122.288 7.76 11.42 -5
9/13/2022 11:45:00 PM 50.16 122.288 7.77 11.25 -5
9/14/2022 12:00:00 AM 50.16 122.288 7.78 11.36 -5
9/14/2022 12:15:00 AM 50.15 122.27 7.79 11.26 -5
9/14/2022 12:30:00 AM 50.15 122.27 7.79 11.26 -5
9/14/2022 12:45:00 AM 50.15 122.27 7.8 11.44 -5
9/14/2022 1:00:00 AM 50.16 122.288 7.81 11.44 -5
9/14/2022 1:15:00 AM 50.16 122.288 7.82 11.44 -5
9/14/2022 1:30:00 AM 50.16 122.288 7.84 11.18 -5
9/14/2022 1:45:00 AM 50.15 122.27 7.85 11.31 -5
9/14/2022 2:00:00 AM 50.16 122.288 7.87 11.41 -5
9/14/2022 2:15:00 AM 50.16 122.288 7.89 11.18 -5
9/14/2022 2:30:00 AM 50.16 122.288 7.91 11.34 -5
9/14/2022 2:45:00 AM 50.16 122.288 8 11.28 -5
9/14/2022 3:00:00 AM 50.16 122.288 7.95 11.18 -5
9/14/2022 3:15:00 AM 50.16 122.288 7.9 11.32 -5
9/14/2022 3:30:00 AM 50.16 122.288 7.9 11.24 -5
9/14/2022 3:45:00 AM 50.16 122.288 7.86 11.5 -5
9/14/2022 4:00:00 AM 50.16 122.288 7.87 11.32 -5
9/14/2022 4:15:00 AM 50.14 122.252 7.85 11.33 -5
9/14/2022 4:30:00 AM 50.16 122.288 7.86 11.69 -5
9/14/2022 4:45:00 AM 50.15 122.27 7.84 11.5 -5
9/14/2022 5:00:00 AM 50.15 122.27 7.83 12.26 -5
9/14/2022 5:15:00 AM 50.15 122.27 7.83 11.91 -5
9/14/2022 5:30:00 AM 50.15 122.27 7.79 11.64 -5
9/14/2022 5:45:00 AM 50.15 122.27 7.8 11.57 -5
9/14/2022 6:00:00 AM 50.15 122.27 7.77 11.45 -5
9/14/2022 6:15:00 AM 50.16 122.288 7.79 11.5 -5
9/14/2022 6:30:00 AM 50.16 122.288 7.76 11.51 -5
9/14/2022 6:45:00 AM 50.16 122.288 7.76 11.48 -5
9/14/2022 7:00:00 AM 50.16 122.288 7.76 11.85 -5
9/14/2022 7:15:00 AM 50.16 122.288 7.72 11.01 -5
9/14/2022 7:30:00 AM 50.16 122.288 7.78 10.61 -5
9/14/2022 7:45:00 AM 50.16 122.288 7.75 11.26 -5
9/14/2022 8:00:00 AM 50.15 122.27 7.78 11.35 -5
9/14/2022 8:15:00 AM 50.16 122.288 7.76 11.13 -5
9/14/2022 8:30:00 AM 50.15 122.27 7.78 10.52 -5
9/14/2022 8:45:00 AM 50.15 122.27 7.81 10.49 -5
9/14/2022 9:00:00 AM 50.16 122.288 7.75 10.37 -5
9/14/2022 9:15:00 AM 50.16 122.288 7.8 9.52 -5
9/14/2022 9:30:00 AM 50.15 122.27 7.76 9.43 -5
9/14/2022 9:45:00 AM 50.15 122.27 7.78 9.36 -5
9/14/2022 10:00:00 AM 50.15 122.27 7.8 9.15 -5
9/14/2022 10:15:00 AM 50.14 122.252 7.78 9.19 -5
9/14/2022 10:30:00 AM 50.14 122.252 7.82 9.21 -5
9/14/2022 10:45:00 AM 50.14 122.252 7.78 9.16 -5
9/14/2022 11:00:00 AM -9.96 14.072 7.81 8.87 -5
9/14/2022 11:15:00 AM -9.96 14.072 7.83 8.2 -5
9/14/2022 11:30:00 AM -9.96 14.072 7.85 8.34 -5
9/14/2022 11:45:00 AM -9.96 14.072 7.86 8.34 -5
9/14/2022 12:00:00 PM -7.08 19.256 7.87 8.61 -5
9/14/2022 12:15:00 PM -9.96 14.072 7.81 8.41 -5
9/14/2022 12:30:00 PM -9.96 14.072 7.78 8.21 -5
9/14/2022 12:45:00 PM 9.56 49.208 7.77 8.35 -5
9/14/2022 1:00:00 PM -9.96 14.072 7.81 7.94 -5
9/14/2022 1:15:00 PM -9.33 15.206 7.83 7.97 -5
9/14/2022 1:30:00 PM -9.96 14.072 7.81 8.09 -5
9/14/2022 1:45:00 PM -9.96 14.072 7.84 8.12 -5
9/14/2022 2:00:00 PM -9.96 14.072 7.86 8.83 -5
9/14/2022 2:15:00 PM -9.96 14.072 7.85 10.01 -5
9/14/2022 2:30:00 PM -9.96 14.072 7.82 9.73 -5
9/14/2022 2:45:00 PM -9.96 14.072 7.81 9.6 -5
9/14/2022 3:00:00 PM -9.96 14.072 7.81 9.6 -5
9/14/2022 3:15:00 PM -9.96 14.072 7.81 9.63 -5
9/14/2022 3:30:00 PM -9.96 14.072 7.8 9.61 -5
9/14/2022 3:45:00 PM -9.96 14.072 7.79 9.24 -5
9/14/2022 4:00:00 PM -9.96 14.072 7.81 8.34 -5
9/14/2022 4:15:00 PM -12.44 9.608 7.84 8.22 -5
9/14/2022 4:30:00 PM -12.44 9.608 7.83 8.11 -5
9/14/2022 4:45:00 PM -12.44 9.608 7.81 7.56 -5
9/14/2022 5:00:00 PM -12.44 9.608 7.78 7.38 -5
9/14/2022 5:15:00 PM -12.44 9.608 7.77 7.43 -5
9/14/2022 5:30:00 PM -12.44 9.608 7.77 7.47 -5
9/14/2022 5:45:00 PM -12.44 9.608 7.77 7.48 -5
9/14/2022 6:00:00 PM -12.44 9.608 7.79 7.43 -5
9/14/2022 6:15:00 PM -12.44 9.608 7.8 7.34 -5
9/14/2022 6:30:00 PM -12.44 9.608 7.82 7.6 -5
9/14/2022 6:45:00 PM -12.44 9.608 7.84 13.86 -5
9/14/2022 7:00:00 PM -12.44 9.608 7.88 11.13 -5
9/14/2022 7:15:00 PM -12.44 9.608 7.91 10.25 -5
9/14/2022 7:30:00 PM -12.44 9.608 7.92 9.81 -5
9/14/2022 7:45:00 PM -12.44 9.608 7.91 9.8 -5
9/14/2022 8:00:00 PM -12.44 9.608 7.87 10.75 -5
9/14/2022 8:15:00 PM -12.44 9.608 7.91 10.23 -5
9/14/2022 8:30:00 PM -12.44 9.608 7.88 10.04 -5
9/14/2022 8:45:00 PM -12.44 9.608 7.92 10.46 -5
9/14/2022 9:00:00 PM -12.44 9.608 7.92 10.17 -5
9/14/2022 9:15:00 PM -12.44 9.608 7.94 10.4 -5
9/14/2022 9:30:00 PM -12.44 9.608 7.94 10.65 -5
9/14/2022 9:45:00 PM -12.44 9.608 7.93 10.15 -5
9/14/2022 10:00:00 PM -12.44 9.608 7.96 10.16 -5
9/14/2022 10:15:00 PM -12.44 9.608 7.95 9.79 -5
9/14/2022 10:30:00 PM -12.44 9.608 7.99 9.59 -5
9/14/2022 10:45:00 PM -12.44 9.608 8 9.28 -5
9/14/2022 11:00:00 PM -12.44 9.608 8.01 9.38 -5
9/14/2022 11:15:00 PM -12.44 9.608 8.04 9.29 -5
9/14/2022 11:30:00 PM -12.44 9.608 8.03 9.78 -5
9/14/2022 11:45:00 PM -12.44 9.608 8.04 10.08 -5
9/15/2022 12:00:00 AM -12.44 9.608 8.05 9.84 -5
9/15/2022 12:15:00 AM -12.44 9.608 8.06 11.18 -5
9/15/2022 12:30:00 AM -12.44 9.608 8.06 9.51 -5
9/15/2022 12:45:00 AM -12.44 9.608 8.06 9.8 -5
9/15/2022 1:00:00 AM -12.44 9.608 8.07 9.42 -5
9/15/2022 1:15:00 AM -12.44 9.608 8.08 9.57 -5
9/15/2022 1:30:00 AM -12.44 9.608 8.08 9.53 -5
9/15/2022 1:45:00 AM -12.44 9.608 8.08 9.51 -5
9/15/2022 2:00:00 AM -12.44 9.608 8.08 9.63 -5
9/15/2022 2:15:00 AM -12.44 9.608 8.04 9.52 -5
9/15/2022 2:30:00 AM -12.44 9.608 8.06 9.67 -5
9/15/2022 2:45:00 AM -12.44 9.608 8.01 9.66 -5
9/15/2022 3:00:00 AM -12.44 9.608 8.04 9.6 -5
9/15/2022 3:15:00 AM -12.44 9.608 7.99 9.69 -5
9/15/2022 3:30:00 AM -12.44 9.608 8.02 9.66 -5
9/15/2022 3:45:00 AM -12.44 9.608 8.02 8.89 -5
9/15/2022 4:00:00 AM -12.44 9.608 7.99 9.13 -5
9/15/2022 4:15:00 AM -12.44 9.608 7.99 9.13 -5
9/15/2022 4:30:00 AM -12.44 9.608 7.96 9.04 -5
9/15/2022 4:45:00 AM -12.44 9.608 7.97 9.45 -5
9/15/2022 5:00:00 AM -12.44 9.608 7.93 9.6 -5
9/15/2022 5:15:00 AM -12.44 9.608 7.94 9.41 -5
9/15/2022 5:30:00 AM -12.44 9.608 7.89 9.65 -5
9/15/2022 5:45:00 AM -12.44 9.608 7.89 9.54 -5
9/15/2022 6:00:00 AM -12.44 9.608 7.86 9.33 -5
9/15/2022 6:15:00 AM -12.44 9.608 7.86 9.45 -5
9/15/2022 6:30:00 AM -12.44 9.608 7.85 9.47 -5
9/15/2022 6:45:00 AM -12.44 9.608 7.82 9.6 -5
9/15/2022 7:00:00 AM -12.44 9.608 7.83 10.04 -5
9/15/2022 7:15:00 AM -12.44 9.608 7.8 9.81 -5
9/15/2022 7:30:00 AM -12.44 9.608 7.82 9.14 -5
9/15/2022 7:45:00 AM -12.44 9.608 7.82 9.34 -5
9/15/2022 8:00:00 AM -12.44 9.608 7.8 8.8 -5
9/15/2022 8:15:00 AM -12.44 9.608 7.81 8.86 -5
9/15/2022 8:30:00 AM -12.44 9.608 7.77 8.84 -5
9/15/2022 8:45:00 AM -12.44 9.608 7.79 8.99 -5
9/15/2022 9:00:00 AM -12.44 9.608 7.79 9.16 -5
9/15/2022 9:15:00 AM -12.44 9.608 7.79 8.75 -5
9/15/2022 9:30:00 AM -12.44 9.608 7.8 8.65 -5
9/15/2022 9:45:00 AM -12.44 9.608 7.77 8.19 -5
9/15/2022 10:00:00 AM -12.44 9.608 7.8 8.32 -5
9/15/2022 10:15:00 AM -12.44 9.608 7.81 8.24 -5
9/15/2022 10:30:00 AM -12.44 9.608 7.81 8.27 -5
9/15/2022 10:45:00 AM -12.44 9.608 7.82 8.04 -5
9/15/2022 11:00:00 AM -12.44 9.608 7.82 7.94 -5
9/15/2022 11:15:00 AM -12.44 9.608 7.82 7.92 -5
9/15/2022 11:30:00 AM -12.44 9.608 7.82 7.95 -5
9/15/2022 11:45:00 AM -12.44 9.608 7.82 7.95 -5
9/15/2022 12:00:00 PM -12.44 9.608 7.82 7.92 -5
9/15/2022 12:15:00 PM -12.44 9.608 7.81 8 -5
9/15/2022 12:30:00 PM -12.44 9.608 7.82 7.85 -5
9/15/2022 12:45:00 PM -12.44 9.608 7.79 7.95 -5
9/15/2022 1:00:00 PM -12.44 9.608 7.78 8.06 -5
9/15/2022 1:15:00 PM -12.44 9.608 7.78 7.89 -5
9/15/2022 1:30:00 PM -12.44 9.608 7.77 7.95 -5
9/15/2022 1:45:00 PM -12.44 9.608 7.77 7.96 -5
9/15/2022 2:00:00 PM -12.44 9.608 7.76 8.06 -5
9/15/2022 2:15:00 PM -12.44 9.608 7.76 7.94 -5
9/15/2022 2:30:00 PM -12.44 9.608 7.75 7.98 -5
9/15/2022 2:45:00 PM -12.44 9.608 7.74 8.03 -5
9/15/2022 3:00:00 PM -12.44 9.608 7.74 7.96 -5
9/15/2022 3:15:00 PM -12.44 9.608 7.74 8.01 -5
9/15/2022 3:30:00 PM -12.44 9.608 7.73 8.03 -5
9/15/2022 3:45:00 PM -12.44 9.608 7.73 8.08 -5
9/15/2022 4:00:00 PM -12.44 9.608 7.72 8.13 -5
9/15/2022 4:15:00 PM -12.44 9.608 7.72 7.85 -5
9/15/2022 4:30:00 PM -12.44 9.608 7.72 7.88 -5
9/15/2022 4:45:00 PM -12.44 9.608 7.72 7.88 -5
9/15/2022 5:00:00 PM -12.44 9.608 7.73 8.32 -5
9/15/2022 5:15:00 PM -12.44 9.608 7.74 8.72 -5
9/15/2022 5:30:00 PM -12.44 9.608 7.74 8.35 -5
9/15/2022 5:45:00 PM -12.44 9.608 7.75 8.34 -5
9/15/2022 6:00:00 PM -12.44 9.608 7.75 7.96 -5
9/15/2022 6:15:00 PM -12.44 9.608 7.76 8.37 -5
9/15/2022 6:30:00 PM -12.44 9.608 7.76 8.75 -5
9/15/2022 6:45:00 PM -12.44 9.608 7.77 8.4 -5
9/15/2022 7:00:00 PM -12.44 9.608 7.78 8.39 -5
9/15/2022 7:15:00 PM -12.44 9.608 7.79 8.18 -5
9/15/2022 7:30:00 PM -12.44 9.608 7.81 8.49 -5
9/15/2022 7:45:00 PM -12.44 9.608 7.82 8.44 -5
9/15/2022 8:00:00 PM -12.44 9.608 7.83 8.57 -5
9/15/2022 8:15:00 PM -12.44 9.608 7.85 8.28 -5
9/15/2022 8:30:00 PM -12.44 9.608 7.86 8.4 -5
9/15/2022 8:45:00 PM -12.44 9.608 7.87 8.62 -5
9/15/2022 9:00:00 PM -12.44 9.608 7.89 8.74 -5
9/15/2022 9:15:00 PM -12.44 9.608 7.9 8.63 -5
9/15/2022 9:30:00 PM -12.44 9.608 7.92 8.42 -5
9/15/2022 9:45:00 PM -12.44 9.608 7.94 8.56 -5
9/15/2022 10:00:00 PM -12.44 9.608 7.96 8.37 -5
9/15/2022 10:15:00 PM -12.44 9.608 7.98 8.3 -5
9/15/2022 10:30:00 PM -12.44 9.608 8 8.18 -5
9/15/2022 10:45:00 PM -12.44 9.608 8.02 8.5 -5
9/15/2022 11:00:00 PM -12.44 9.608 8.02 8.78 -5
9/15/2022 11:15:00 PM -12.44 9.608 8.05 8.54 -5
9/15/2022 11:30:00 PM -12.44 9.608 8.07 8.53 -5
9/15/2022 11:45:00 PM -12.44 9.608 8.09 8.25 -5
9/16/2022 12:00:00 AM -12.44 9.608 8.11 8.34 -5
9/16/2022 12:15:00 AM -12.44 9.608 8.14 8.4 -5
9/16/2022 12:30:00 AM -12.44 9.608 8.16 8.42 -5
9/16/2022 12:45:00 AM -12.44 9.608 8.19 8.16 -5
9/16/2022 1:00:00 AM -12.44 9.608 8.2 8.15 -5
9/16/2022 1:15:00 AM -12.44 9.608 8.28 8.12 -5
9/16/2022 1:30:00 AM -12.44 9.608 8.23 8.07 -5
9/16/2022 1:45:00 AM -12.44 9.608 8.18 8.02 -5
9/16/2022 2:00:00 AM -12.44 9.608 8.2 8.07 -5
9/16/2022 2:15:00 AM -12.44 9.608 8.22 8.11 -5
9/16/2022 2:30:00 AM -12.44 9.608 8.16 7.97 -5
9/16/2022 2:45:00 AM -12.44 9.608 8.19 8.17 -5
9/16/2022 3:00:00 AM -12.44 9.608 8.18 8.08 -5
9/16/2022 3:15:00 AM -12.44 9.608 8.15 8.08 -5
9/16/2022 3:30:00 AM -12.44 9.608 8.17 8.01 -5
9/16/2022 3:45:00 AM -12.44 9.608 8.14 8 -5
9/16/2022 4:00:00 AM -12.44 9.608 8.13 8.01 -5
9/16/2022 4:15:00 AM -12.44 9.608 8.14 7.9 -5
9/16/2022 4:30:00 AM -12.44 9.608 8.1 7.96 -5
9/16/2022 4:45:00 AM -12.44 9.608 8.11 7.95 -5
9/16/2022 5:00:00 AM -12.44 9.608 8.1 7.98 -5
9/16/2022 5:15:00 AM -12.44 9.608 8.05 8 -5
9/16/2022 5:30:00 AM -12.44 9.608 8.08 8.04 -5
9/16/2022 5:45:00 AM -12.44 9.608 8.07 7.7 -5
9/16/2022 6:00:00 AM -12.44 9.608 8.02 7.79 -5
9/16/2022 6:15:00 AM -12.44 9.608 8.03 7.86 -5
9/16/2022 6:30:00 AM -12.44 9.608 8.02 7.92 -5
9/16/2022 6:45:00 AM -12.44 9.608 7.99 7.79 -5
9/16/2022 7:00:00 AM -12.44 9.608 7.99 7.71 -5
9/16/2022 7:15:00 AM -12.44 9.608 7.98 7.55 -5
9/16/2022 7:30:00 AM -12.44 9.608 7.95 7.96 -5
9/16/2022 7:45:00 AM -12.44 9.608 7.95 7.82 -5
9/16/2022 8:00:00 AM -12.44 9.608 7.96 7.72 -5
9/16/2022 8:15:00 AM -12.44 9.608 7.95 7.65 -5
9/16/2022 8:30:00 AM -12.44 9.608 7.93 7.73 -5
9/16/2022 8:45:00 AM -12.44 9.608 7.97 7.21 -5
9/16/2022 9:00:00 AM -12.44 9.608 7.98 7.24 -5
9/16/2022 9:15:00 AM -12.44 9.608 7.93 7.25 -5
9/16/2022 9:30:00 AM -12.44 9.608 7.97 7.15 -5
9/16/2022 9:45:00 AM -12.44 9.608 7.98 7.31 -5
9/16/2022 10:00:00 AM -12.44 9.608 7.95 6.82 -5
9/16/2022 10:15:00 AM -12.44 9.608 7.97 7.03 -5
9/16/2022 10:30:00 AM -12.44 9.608 7.98 6.75 -5
9/16/2022 10:45:00 AM -12.44 9.608 7.98 6.72 -5
9/16/2022 11:00:00 AM -12.44 9.608 7.95 6.92 -5
9/16/2022 11:15:00 AM -12.44 9.608 7.96 6.72 -5
9/16/2022 11:30:00 AM -12.44 9.608 7.97 6.59 -5
9/16/2022 11:45:00 AM -12.44 9.608 7.96 6.7 -5
9/16/2022 12:00:00 PM -12.44 9.608 7.96 6.63 -5
9/16/2022 12:15:00 PM -12.44 9.608 7.94 6.48 -5
9/16/2022 12:30:00 PM -12.44 9.608 7.93 6.58 -5
9/16/2022 12:45:00 PM -12.44 9.608 7.92 6.41 -5
9/16/2022 1:00:00 PM -12.44 9.608 7.9 6.52 -5
9/16/2022 1:15:00 PM -12.44 9.608 7.89 6.54 -5
9/16/2022 1:30:00 PM -12.44 9.608 7.88 6.47 -5
9/16/2022 1:45:00 PM -12.44 9.608 7.86 6.61 -5
9/16/2022 2:00:00 PM -12.44 9.608 7.85 6.46 -5
9/16/2022 2:15:00 PM -12.44 9.608 7.84 6.48 -5
9/16/2022 2:30:00 PM -12.44 9.608 7.83 6.57 -5
9/16/2022 2:45:00 PM -12.44 9.608 7.82 6.49 -5
9/16/2022 3:00:00 PM -12.44 9.608 7.81 6.46 -5
9/16/2022 3:15:00 PM -12.44 9.608 7.81 6.51 -5
9/16/2022 3:30:00 PM -12.44 9.608 7.81 6.74 -5
9/16/2022 3:45:00 PM -12.44 9.608 7.81 6.49 -5
9/16/2022 4:00:00 PM -12.44 9.608 7.81 6.55 -5
9/16/2022 4:15:00 PM -12.44 9.608 7.8 6.5 -5
9/16/2022 4:30:00 PM -12.44 9.608 7.81 6.53 -5
9/16/2022 4:45:00 PM -12.44 9.608 7.8 6.95 -5
9/16/2022 5:00:00 PM -12.44 9.608 7.8 7.1 -5
9/16/2022 5:15:00 PM -12.44 9.608 7.8 7.03 -5
9/16/2022 5:30:00 PM -12.44 9.608 7.8 7.06 -5
9/16/2022 5:45:00 PM -12.44 9.608 7.8 7 -5
9/16/2022 6:00:00 PM -12.44 9.608 7.8 6.82 -5
9/16/2022 6:15:00 PM -12.44 9.608 7.8 6.84 -5
9/16/2022 6:30:00 PM -12.44 9.608 7.81 6.83 -5
9/16/2022 6:45:00 PM -12.44 9.608 7.82 6.64 -5
9/16/2022 7:00:00 PM -12.44 9.608 7.83 6.84 -5
9/16/2022 7:15:00 PM -12.44 9.608 7.84 7.66 -5
9/16/2022 7:30:00 PM -12.44 9.608 7.85 6.69 -5
9/16/2022 7:45:00 PM -12.44 9.608 7.86 6.72 -5
9/16/2022 8:00:00 PM -12.44 9.608 7.88 6.7 -5
9/16/2022 8:15:00 PM -12.44 9.608 7.89 6.8 -5
9/16/2022 8:30:00 PM -12.44 9.608 7.91 7 -5
9/16/2022 8:45:00 PM -12.44 9.608 7.92 6.99 -5
9/16/2022 9:00:00 PM -12.44 9.608 7.94 7.13 -5
9/16/2022 9:15:00 PM -12.44 9.608 7.97 7.34 -5
9/16/2022 9:30:00 PM -12.44 9.608 7.99 7.21 -5
9/16/2022 9:45:00 PM -12.44 9.608 8.02 7.23 -5
9/16/2022 10:00:00 PM -12.44 9.608 8.04 7.12 -5
9/16/2022 10:15:00 PM -12.44 9.608 8.06 6.94 -5
9/16/2022 10:30:00 PM -12.44 9.608 8.08 7.04 -5
9/16/2022 10:45:00 PM -12.44 9.608 8.09 7.04 -5
9/16/2022 11:00:00 PM -12.44 9.608 8.11 6.97 -5
9/16/2022 11:15:00 PM -12.44 9.608 8.12 6.99 -5
9/16/2022 11:30:00 PM -12.44 9.608 8.13 8.24 -5
9/16/2022 11:45:00 PM -12.44 9.608 8.14 7.62 -5
9/17/2022 12:00:00 AM -12.44 9.608 8.15 7.32 -5
9/17/2022 12:15:00 AM -12.44 9.608 8.17 7.39 -5
9/17/2022 12:30:00 AM -12.44 9.608 8.18 7.18 -5
9/17/2022 12:45:00 AM -12.44 9.608 8.2 7.12 -5
9/17/2022 1:00:00 AM -12.44 9.608 8.2 7 -5
9/17/2022 1:15:00 AM -12.44 9.608 8.22 7.09 -5
9/17/2022 1:30:00 AM -12.44 9.608 8.23 6.95 -5
9/17/2022 1:45:00 AM -12.44 9.608 8.25 7.04 -5
9/17/2022 2:00:00 AM -12.44 9.608 8.26 7.23 -5
9/17/2022 2:15:00 AM -12.44 9.608 8.27 7.48 -5
9/17/2022 2:30:00 AM -12.44 9.608 8.29 7.32 -5
9/17/2022 2:45:00 AM -12.44 9.608 8.3 7.26 -5
9/17/2022 3:00:00 AM -12.44 9.608 8.31 7.31 -5
9/17/2022 3:15:00 AM -12.44 9.608 8.34 7.18 -5
9/17/2022 3:30:00 AM -12.44 9.608 8.38 7.27 -5
9/17/2022 3:45:00 AM -12.44 9.608 8.46 7.07 -5
9/17/2022 4:00:00 AM -12.44 9.608 8.35 7.03 -5
9/17/2022 4:15:00 AM -12.44 9.608 8.35 7.09 -5
9/17/2022 4:30:00 AM -12.44 9.608 8.28 7.12 -5
9/17/2022 4:45:00 AM -12.44 9.608 8.29 7.12 -5
9/17/2022 5:00:00 AM -12.44 9.608 8.3 7.07 -5
9/17/2022 5:15:00 AM -12.44 9.608 8.24 7.06 -5
9/17/2022 5:30:00 AM -12.44 9.608 8.27 6.69 -5
9/17/2022 5:45:00 AM -12.44 9.608 8.23 6.88 -5
9/17/2022 6:00:00 AM -12.44 9.608 8.22 6.77 -5
9/17/2022 6:15:00 AM -12.44 9.608 8.23 6.85 -5
9/17/2022 6:30:00 AM -12.44 9.608 8.17 6.91 -5
9/17/2022 6:45:00 AM -12.44 9.608 8.18 6.82 -5
9/17/2022 7:00:00 AM -12.44 9.608 8.16 6.96 -5
9/17/2022 7:15:00 AM -12.44 9.608 8.12 7.18 -5
9/17/2022 7:30:00 AM -12.44 9.608 8.12 6.94 -5
9/17/2022 7:45:00 AM -12.44 9.608 8.11 7.29 -5
9/17/2022 8:00:00 AM -12.44 9.608 8.07 6.95 -5
9/17/2022 8:15:00 AM -12.44 9.608 8.09 6.82 -5
9/17/2022 8:30:00 AM -12.44 9.608 8.09 6.57 -5
9/17/2022 8:45:00 AM -12.44 9.608 8.05 6.2 -5
9/17/2022 9:00:00 AM -12.44 9.608 8.08 6.21 -5
9/17/2022 9:15:00 AM -12.44 9.608 8.1 6.16 -5
9/17/2022 9:30:00 AM -12.44 9.608 8.05 6.24 -5
9/17/2022 9:45:00 AM -12.44 9.608 8.09 5.91 -5
9/17/2022 10:00:00 AM -12.44 9.608 8.1 5.86 -5
9/17/2022 10:15:00 AM -12.44 9.608 8.07 5.89 -5
9/17/2022 10:30:00 AM -12.44 9.608 8.08 5.86 -5
9/17/2022 10:45:00 AM -12.44 9.608 8.08 5.72 -5
9/17/2022 11:00:00 AM -12.44 9.608 8.07 5.79 -5
9/17/2022 11:15:00 AM -12.44 9.608 8.08 5.71 -5
9/17/2022 11:30:00 AM -12.44 9.608 8.08 5.64 -5
9/17/2022 11:45:00 AM -12.44 9.608 8.06 5.72 -5
9/17/2022 12:00:00 PM -12.44 9.608 8.05 5.62 -5
9/17/2022 12:15:00 PM -12.44 9.608 8.02 5.6 -5
9/17/2022 12:30:00 PM -12.44 9.608 7.98 5.69 -5
9/17/2022 12:45:00 PM -12.44 9.608 7.94 6.73 -5
9/17/2022 1:00:00 PM -12.44 9.608 7.91 6.15 -5
9/17/2022 1:15:00 PM -12.44 9.608 7.89 6.1 -5
9/17/2022 1:30:00 PM -12.44 9.608 7.88 5.93 -5
9/17/2022 1:45:00 PM -12.44 9.608 7.86 5.86 -5
9/17/2022 2:00:00 PM -12.44 9.608 7.85 5.9 -5
9/17/2022 2:15:00 PM -12.44 9.608 7.83 5.86 -5
9/17/2022 2:30:00 PM -12.44 9.608 7.82 5.78 -5
9/17/2022 2:45:00 PM -12.44 9.608 7.81 5.93 -5
9/17/2022 3:00:00 PM -12.44 9.608 7.8 5.86 -5
9/17/2022 3:15:00 PM -12.44 9.608 7.79 5.81 -5
9/17/2022 3:30:00 PM -12.44 9.608 7.79 5.86 -5
9/17/2022 3:45:00 PM -12.44 9.608 7.79 5.85 -5
9/17/2022 4:00:00 PM -12.44 9.608 7.78 5.56 -5
9/17/2022 4:15:00 PM -12.44 9.608 7.8 5.61 -5
9/17/2022 4:30:00 PM -12.44 9.608 7.8 5.49 -5
9/17/2022 4:45:00 PM -12.44 9.608 7.8 5.44 -5
9/17/2022 5:00:00 PM -12.44 9.608 7.79 5.46 -5
9/17/2022 5:15:00 PM -12.44 9.608 7.79 5.43 -5
9/17/2022 5:30:00 PM -12.44 9.608 7.79 5.48 -5
9/17/2022 5:45:00 PM -12.44 9.608 7.79 5.67 -5
9/17/2022 6:00:00 PM -12.44 9.608 7.8 5.5 -5
9/17/2022 6:15:00 PM -12.44 9.608 7.8 5.72 -5
9/17/2022 6:30:00 PM -12.44 9.608 7.81 6.05 -5
9/17/2022 6:45:00 PM -12.44 9.608 7.82 5.85 -5
9/17/2022 7:00:00 PM -12.44 9.608 7.83 5.71 -5
9/17/2022 7:15:00 PM -12.44 9.608 7.84 5.65 -5
9/17/2022 7:30:00 PM -12.44 9.608 7.85 5.74 -5
9/17/2022 7:45:00 PM -12.44 9.608 7.86 5.69 -5
9/17/2022 8:00:00 PM -12.44 9.608 7.87 5.77 -5
9/17/2022 8:15:00 PM -12.44 9.608 7.89 5.81 -5
9/17/2022 8:30:00 PM -12.44 9.608 7.9 6.09 -5
9/17/2022 8:45:00 PM -12.44 9.608 7.91 6 -5
9/17/2022 9:00:00 PM -12.44 9.608 7.93 6.2 -5
9/17/2022 9:15:00 PM -12.44 9.608 7.94 6.14 -5
9/17/2022 9:30:00 PM -12.44 9.608 7.95 6.22 -5
9/17/2022 9:45:00 PM -12.44 9.608 7.96 6.21 -5
9/17/2022 10:00:00 PM -12.44 9.608 7.98 6.19 -5
9/17/2022 10:15:00 PM -12.44 9.608 8 6.16 -5
9/17/2022 10:30:00 PM -12.44 9.608 8.01 6.1 -5
9/17/2022 10:45:00 PM -12.44 9.608 8.04 6.14 -5
9/17/2022 11:00:00 PM -12.44 9.608 8.06 6.12 -5
9/17/2022 11:15:00 PM -12.44 9.608 8.08 6.03 -5
9/17/2022 11:30:00 PM -12.44 9.608 8.1 6.29 -5
9/17/2022 11:45:00 PM -12.44 9.608 8.12 6.2 -5
9/18/2022 12:00:00 AM -12.44 9.608 8.12 6.11 -5
9/18/2022 12:15:00 AM -12.44 9.608 8.13 6.04 -5
9/18/2022 12:30:00 AM -12.44 9.608 8.14 6.22 -5
9/18/2022 12:45:00 AM -12.44 9.608 8.14 6.09 -5
9/18/2022 1:00:00 AM -12.44 9.608 8.16 6.18 -5
9/18/2022 1:15:00 AM -12.44 9.608 8.17 6.1 -5
9/18/2022 1:30:00 AM -12.44 9.608 8.18 6.08 -5
9/18/2022 1:45:00 AM -12.44 9.608 8.19 6.1 -5
9/18/2022 2:00:00 AM -12.44 9.608 8.19 6.14 -5
9/18/2022 2:15:00 AM -12.44 9.608 8.2 6.37 -5
9/18/2022 2:30:00 AM -12.44 9.608 8.21 6.28 -5
9/18/2022 2:45:00 AM -12.44 9.608 8.23 6.54 -5
9/18/2022 3:00:00 AM -12.44 9.608 8.23 6.28 -5
9/18/2022 3:15:00 AM -12.44 9.608 8.24 6.39 -5
9/18/2022 3:30:00 AM -12.44 9.608 8.25 6.54 -5
9/18/2022 3:45:00 AM -12.44 9.608 8.27 6.33 -5
9/18/2022 4:00:00 AM -12.44 9.608 8.29 6.3 -5
9/18/2022 4:15:00 AM -12.44 9.608 8.3 6.31 -5
9/18/2022 4:30:00 AM -12.44 9.608 8.33 6.24 -5
9/18/2022 4:45:00 AM -12.44 9.608 8.33 6.25 -5
9/18/2022 5:00:00 AM -12.44 9.608 8.36 6.28 -5
9/18/2022 5:15:00 AM -12.44 9.608 8.44 6.23 -5
9/18/2022 5:30:00 AM -12.44 9.608 8.35 6.31 -5
9/18/2022 5:45:00 AM -12.44 9.608 8.32 6.34 -5
9/18/2022 6:00:00 AM -12.44 9.608 8.31 6.25 -5
9/18/2022 6:15:00 AM -12.44 9.608 8.26 6.28 -5
9/18/2022 6:30:00 AM -12.44 9.608 8.29 6.34 -5
9/18/2022 6:45:00 AM -12.44 9.608 8.24 6.46 -5
9/18/2022 7:00:00 AM -12.44 9.608 8.27 6.46 -5
9/18/2022 7:15:00 AM -12.44 9.608 8.25 6.36 -5
9/18/2022 7:30:00 AM -12.44 9.608 8.23 6.4 -5
9/18/2022 7:45:00 AM -12.44 9.608 8.24 6.29 -5
9/18/2022 8:00:00 AM -12.44 9.608 8.17 6.03 -5
9/18/2022 8:15:00 AM -12.44 9.608 8.19 5.97 -5
9/18/2022 8:30:00 AM -12.44 9.608 8.15 5.81 -5
9/18/2022 8:45:00 AM -12.44 9.608 8.17 5.76 -5
9/18/2022 9:00:00 AM -12.44 9.608 8.2 5.7 -5
9/18/2022 9:15:00 AM -12.44 9.608 8.15 5.3 -5
9/18/2022 9:30:00 AM -12.44 9.608 8.19 5.31 -5
9/18/2022 9:45:00 AM -12.44 9.608 8.16 5.22 -5
9/18/2022 10:00:00 AM -12.44 9.608 8.19 5.25 -5
9/18/2022 10:15:00 AM -12.44 9.608 8.18 5.18 -5
9/18/2022 10:30:00 AM -12.44 9.608 8.18 5.09 -5
9/18/2022 10:45:00 AM -12.44 9.608 8.18 5.1 -5
9/18/2022 11:00:00 AM -12.44 9.608 8.16 4.91 -5
9/18/2022 11:15:00 AM -12.44 9.608 8.18 4.92 -5
9/18/2022 11:30:00 AM -12.44 9.608 8.16 5.01 -5
9/18/2022 11:45:00 AM -12.44 9.608 8.16 5.15 -5
9/18/2022 12:00:00 PM -12.44 9.608 8.14 4.81 -5
9/18/2022 12:15:00 PM -12.44 9.608 8.1 4.91 -5
9/18/2022 12:30:00 PM -12.44 9.608 8.06 4.88 -5
9/18/2022 12:45:00 PM -12.44 9.608 8.03 4.79 -5
9/18/2022 1:00:00 PM -12.44 9.608 8 4.78 -5
9/18/2022 1:15:00 PM -12.44 9.608 7.98 4.82 -5
9/18/2022 1:30:00 PM -12.44 9.608 7.95 4.74 -5
9/18/2022 1:45:00 PM -12.44 9.608 7.94 4.75 -5
9/18/2022 2:00:00 PM -12.44 9.608 7.93 4.71 -5
9/18/2022 2:15:00 PM -12.44 9.608 7.92 4.74 -5
9/18/2022 2:30:00 PM -12.44 9.608 7.91 4.62 -5
9/18/2022 2:45:00 PM -12.44 9.608 7.9 4.63 -5
9/18/2022 3:00:00 PM -12.44 9.608 7.89 4.69 -5
9/18/2022 3:15:00 PM -12.44 9.608 7.88 4.65 -5
9/18/2022 3:30:00 PM -12.44 9.608 7.88 4.42 -5
9/18/2022 3:45:00 PM -12.44 9.608 7.87 4.48 -5
9/18/2022 4:00:00 PM -12.44 9.608 7.87 4.55 -5
9/18/2022 4:15:00 PM -12.44 9.608 7.87 4.58 -5
9/18/2022 4:30:00 PM -12.44 9.608 7.87 4.41 -5
9/18/2022 4:45:00 PM -12.44 9.608 7.87 4.36 -5
9/18/2022 5:00:00 PM -12.44 9.608 7.87 4.46 -5
9/18/2022 5:15:00 PM -12.44 9.608 7.88 4.38 -5
9/18/2022 5:30:00 PM -12.44 9.608 7.88 5.12 -5
9/18/2022 5:45:00 PM -12.44 9.608 7.88 5.12 -5
9/18/2022 6:00:00 PM -12.44 9.608 7.88 4.87 -5
9/18/2022 6:15:00 PM -12.44 9.608 7.88 4.81 -5
9/18/2022 6:30:00 PM -12.44 9.608 7.89 4.75 -5
9/18/2022 6:45:00 PM -12.44 9.608 7.9 4.83 -5
9/18/2022 7:00:00 PM -12.44 9.608 7.91 4.63 -5
9/18/2022 7:15:00 PM -12.44 9.608 7.91 4.75 -5
9/18/2022 7:30:00 PM -12.44 9.608 7.93 4.79 -5
9/18/2022 7:45:00 PM -12.44 9.608 7.94 4.82 -5
9/18/2022 8:00:00 PM -12.44 9.608 7.96 4.9 -5
9/18/2022 8:15:00 PM -12.44 9.608 7.97 4.98 -5
9/18/2022 8:30:00 PM -12.44 9.608 7.99 5.1 -5
9/18/2022 8:45:00 PM -12.44 9.608 8 5.42 -5
9/18/2022 9:00:00 PM -12.44 9.608 8.01 5.4 -5
9/18/2022 9:15:00 PM -12.44 9.608 8.02 5.42 -5
9/18/2022 9:30:00 PM -12.44 9.608 8.04 5.47 -5
9/18/2022 9:45:00 PM -12.44 9.608 8.05 5.55 -5
9/18/2022 10:00:00 PM -12.44 9.608 8.06 5.43 -5
9/18/2022 10:15:00 PM -12.44 9.608 8.08 5.47 -5
9/18/2022 10:30:00 PM -12.44 9.608 8.09 5.44 -5
9/18/2022 10:45:00 PM -12.44 9.608 8.11 5.33 -5
9/18/2022 11:00:00 PM -12.44 9.608 8.12 5.53 -5
9/18/2022 11:15:00 PM -12.44 9.608 8.13 5.36 -5
9/18/2022 11:30:00 PM -12.44 9.608 8.14 5.4 -5
9/18/2022 11:45:00 PM -12.44 9.608 8.15 5.42 -5
9/19/2022 12:00:00 AM -12.44 9.608 8.17 5.41 -5
9/19/2022 12:15:00 AM -12.44 9.608 8.18 5.53 -5
9/19/2022 12:30:00 AM -12.44 9.608 8.2 5.43 -5
9/19/2022 12:45:00 AM -12.44 9.608 8.24 5.76 -5
9/19/2022 1:00:00 AM -12.44 9.608 8.26 5.44 -5
9/19/2022 1:15:00 AM -12.44 9.608 8.28 5.48 -5
9/19/2022 1:30:00 AM -12.44 9.608 8.29 5.43 -5
9/19/2022 1:45:00 AM -12.44 9.608 8.31 5.4 -5
9/19/2022 2:00:00 AM -12.44 9.608 8.33 5.4 -5
9/19/2022 2:15:00 AM -12.44 9.608 8.34 5.38 -5
9/19/2022 2:30:00 AM -12.44 9.608 8.37 5.38 -5
9/19/2022 2:45:00 AM -12.44 9.608 8.38 5.35 -5
9/19/2022 3:00:00 AM -12.44 9.608 8.41 5.48 -5
9/19/2022 3:15:00 AM -12.44 9.608 8.44 5.4 -5
9/19/2022 3:30:00 AM -12.44 9.608 8.52 5.38 -5
9/19/2022 3:45:00 AM -12.44 9.608 8.47 5.44 -5
9/19/2022 4:00:00 AM -12.44 9.608 8.44 5.39 -5
9/19/2022 4:15:00 AM -12.44 9.608 8.42 5.45 -5
9/19/2022 4:30:00 AM -12.44 9.608 8.47 5.34 -5
9/19/2022 4:45:00 AM -12.44 9.608 8.42 5.42 -5
9/19/2022 5:00:00 AM -12.44 9.608 8.46 5.4 -5
9/19/2022 5:15:00 AM -12.44 9.608 8.4 5.43 -5
9/19/2022 5:30:00 AM -12.44 9.608 8.46 5.55 -5
9/19/2022 5:45:00 AM -12.44 9.608 8.4 5.49 -5
9/19/2022 6:00:00 AM -12.44 9.608 8.44 5.42 -5
9/19/2022 6:15:00 AM -12.44 9.608 8.41 5.9 -5
9/19/2022 6:30:00 AM -12.44 9.608 8.39 5.94 -5
9/19/2022 6:45:00 AM -12.44 9.608 8.41 5.64 -5
9/19/2022 7:00:00 AM -12.44 9.608 8.34 5.54 -5
9/19/2022 7:15:00 AM -12.44 9.608 8.36 6.57 -5
9/19/2022 7:30:00 AM -12.44 9.608 8.33 5.52 -5
9/19/2022 7:45:00 AM -12.44 9.608 8.35 5.81 -5
9/19/2022 8:00:00 AM -12.44 9.608 8.31 4.94 -5
9/19/2022 8:15:00 AM -12.44 9.608 8.36 4.6 -5
9/19/2022 8:30:00 AM -12.44 9.608 8.39 4.35 -5
9/19/2022 8:45:00 AM -12.44 9.608 8.36 4.15 -5
9/19/2022 9:00:00 AM -12.44 9.608 8.42 4.11 -5
9/19/2022 9:15:00 AM -12.44 9.608 8.4 4.14 -5
9/19/2022 9:30:00 AM -12.44 9.608 8.4 4.1 -5
9/19/2022 9:45:00 AM -12.44 9.608 8.4 3.93 -5
9/19/2022 10:00:00 AM -12.44 9.608 8.4 3.75 -5
9/19/2022 10:15:00 AM -12.44 9.608 8.4 3.69 -5
9/19/2022 10:30:00 AM -12.44 9.608 8.4 4.35 -5
9/19/2022 10:45:00 AM -12.44 9.608 8.36 3.69 -5
9/19/2022 11:00:00 AM -12.44 9.608 8.35 3.6 -5
9/19/2022 11:15:00 AM -12.44 9.608 8.31 3.59 -5
9/19/2022 11:30:00 AM -12.44 9.608 8.29 3.6 -5
9/19/2022 11:45:00 AM -12.44 9.608 8.25 3.5 -5
9/19/2022 12:00:00 PM -12.44 9.608 8.24 3.73 -5
9/19/2022 12:15:00 PM -12.44 9.608 8.22 3.72 -5
9/19/2022 12:30:00 PM -12.44 9.608 8.19 4.18 -5
9/19/2022 12:45:00 PM -12.44 9.608 8.19 3.77 -5
9/19/2022 1:00:00 PM -12.44 9.608 8.18 3.65 -5
9/19/2022 1:15:00 PM -12.44 9.608 8.17 3.61 -5
9/19/2022 1:30:00 PM -12.44 9.608 8.16 3.55 -5
9/19/2022 1:45:00 PM -12.44 9.608 8.16 3.68 -5
9/19/2022 2:00:00 PM -12.44 9.608 8.15 3.5 -5
9/19/2022 2:15:00 PM -12.44 9.608 8.15 3.48 -5
9/19/2022 2:30:00 PM -12.44 9.608 8.15 3.49 -5
9/19/2022 2:45:00 PM -12.44 9.608 8.15 3.42 -5
9/19/2022 3:00:00 PM -12.44 9.608 8.14 3.46 -5
9/19/2022 3:15:00 PM -12.44 9.608 8.13 3.5 -5
9/19/2022 3:30:00 PM -12.44 9.608 8.12 3.49 -5
9/19/2022 3:45:00 PM -12.44 9.608 8.11 3.44 -5
9/19/2022 4:00:00 PM -12.44 9.608 8.11 3.43 -5
9/19/2022 4:15:00 PM -12.44 9.608 8.11 3.45 -5
9/19/2022 4:30:00 PM -12.44 9.608 8.11 3.41 -5
9/19/2022 4:45:00 PM -12.44 9.608 8.09 3.44 -5
9/19/2022 5:00:00 PM -12.44 9.608 8.08 3.45 -5
9/19/2022 5:15:00 PM -12.44 9.608 8.08 3.4 -5
9/19/2022 5:30:00 PM -12.44 9.608 8.07 3.43 -5
9/19/2022 5:45:00 PM -12.44 9.608 8.08 3.44 -5
9/19/2022 6:00:00 PM -12.44 9.608 8.09 3.43 -5
9/19/2022 6:15:00 PM -12.44 9.608 8.1 3.51 -5
9/19/2022 6:30:00 PM -12.44 9.608 8.11 3.68 -5
9/19/2022 6:45:00 PM -12.44 9.608 8.12 3.77 -5
9/19/2022 7:00:00 PM -12.44 9.608 8.14 3.7 -5
9/19/2022 7:15:00 PM -12.44 9.608 8.17 3.69 -5
9/19/2022 7:30:00 PM -12.44 9.608 8.19 3.76 -5
9/19/2022 7:45:00 PM -12.44 9.608 8.21 3.8 -5
9/19/2022 8:00:00 PM -12.44 9.608 8.23 3.84 -5
9/19/2022 8:15:00 PM -12.44 9.608 8.25 3.79 -5
9/19/2022 8:30:00 PM -12.44 9.608 8.26 3.87 -5
9/19/2022 8:45:00 PM -12.44 9.608 8.27 4.03 -5
9/19/2022 9:00:00 PM -12.44 9.608 8.29 4.16 -5
9/19/2022 9:15:00 PM -12.44 9.608 8.3 4.12 -5
9/19/2022 9:30:00 PM -12.44 9.608 8.33 3.98 -5
9/19/2022 9:45:00 PM -12.44 9.608 8.33 4.16 -5
9/19/2022 10:00:00 PM -12.44 9.608 8.35 4.61 -5
9/19/2022 10:15:00 PM -12.44 9.608 8.37 4.47 -5
9/19/2022 10:30:00 PM -12.44 9.608 8.37 4.39 -5
9/19/2022 10:45:00 PM -12.44 9.608 8.4 4.39 -5
9/19/2022 11:00:00 PM -12.44 9.608 8.41 4.39 -5
9/19/2022 11:15:00 PM -12.44 9.608 8.44 4.49 -5
9/19/2022 11:30:00 PM -12.44 9.608 8.46 4.63 -5
9/19/2022 11:45:00 PM -12.44 9.608 8.42 4.41 -5
9/20/2022 12:00:00 AM -12.44 9.608 8.49 4.38 -5
9/20/2022 12:15:00 AM -12.44 9.608 8.43 4.36 -5
9/20/2022 12:30:00 AM -12.44 9.608 8.41 4.49 -5
9/20/2022 12:45:00 AM -12.44 9.608 8.45 4.46 -5
9/20/2022 1:00:00 AM -12.44 9.608 8.43 4.44 -5
9/20/2022 1:15:00 AM -12.44 9.608 8.45 4.62 -5
9/20/2022 1:30:00 AM -12.44 9.608 8.43 4.55 -5
9/20/2022 1:45:00 AM -12.44 9.608 8.44 4.51 -5
9/20/2022 2:00:00 AM -12.44 9.608 8.43 4.44 -5
9/20/2022 2:15:00 AM -12.44 9.608 8.44 5.06 -5
9/20/2022 2:30:00 AM -12.44 9.608 8.44 4.58 -5
9/20/2022 2:45:00 AM -12.44 9.608 8.44 4.54 -5
9/20/2022 3:00:00 AM -12.44 9.608 8.47 4.5 -5
9/20/2022 3:15:00 AM -12.44 9.608 8.43 4.51 -5
9/20/2022 3:30:00 AM -12.44 9.608 8.46 4.49 -5
9/20/2022 3:45:00 AM -12.44 9.608 8.44 4.57 -5
9/20/2022 4:00:00 AM -12.44 9.608 8.45 4.55 -5
9/20/2022 4:15:00 AM -12.44 9.608 8.46 4.52 -5
9/20/2022 4:30:00 AM -12.44 9.608 8.42 4.56 -5
9/20/2022 4:45:00 AM -12.44 9.608 8.45 4.49 -5
9/20/2022 5:00:00 AM -12.44 9.608 8.41 4.66 -5
9/20/2022 5:15:00 AM -12.44 9.608 8.43 4.54 -5
9/20/2022 5:30:00 AM -12.44 9.608 8.4 4.53 -5
9/20/2022 5:45:00 AM -12.44 9.608 8.39 4.52 -5
9/20/2022 6:00:00 AM -12.44 9.608 8.38 4.46 -5
9/20/2022 6:15:00 AM -12.44 9.608 8.36 4.61 -5
9/20/2022 6:30:00 AM -12.44 9.608 8.38 4.6 -5
9/20/2022 6:45:00 AM -12.44 9.608 8.32 4.58 -5
9/20/2022 7:00:00 AM -12.44 9.608 8.32 0.84 -5
9/20/2022 7:15:00 AM -12.44 9.608 8.28 4.2 -5
9/20/2022 7:30:00 AM -12.44 9.608 8.29 4.37 -5
9/20/2022 7:45:00 AM -12.44 9.608 8.27 3.96 -5
9/20/2022 8:00:00 AM -12.44 9.608 8.25 4.03 -5
9/20/2022 8:15:00 AM -12.44 9.608 8.25 3.81 -5
9/20/2022 8:30:00 AM -12.44 9.608 8.22 3.78 -5
9/20/2022 8:45:00 AM -12.44 9.608 8.26 3.73 -5
9/20/2022 9:00:00 AM -12.44 9.608 8.25 3.7 -5
9/20/2022 9:15:00 AM -12.44 9.608 8.26 3.81 -5
9/20/2022 9:30:00 AM -12.44 9.608 8.26 3.59 -5
9/20/2022 9:45:00 AM -12.44 9.608 8.26 3.65 -5
9/20/2022 10:00:00 AM -12.44 9.608 8.26 3.54 -5
9/20/2022 10:15:00 AM -12.44 9.608 8.26 3.35 -5
9/20/2022 10:30:00 AM -12.44 9.608 8.26 3.38 -5
9/20/2022 10:45:00 AM -12.44 9.608 8.25 3.49 -5
9/20/2022 11:00:00 AM -12.44 9.608 8.24 3.34 -5
9/20/2022 11:15:00 AM -12.44 9.608 8.22 3.33 -5
9/20/2022 11:30:00 AM -12.44 9.608 8.21 3.29 -5
9/20/2022 11:45:00 AM -12.44 9.608 8.19 3.23 -5
9/20/2022 12:00:00 PM -12.44 9.608 8.17 3.2 -5
9/20/2022 12:15:00 PM -12.44 9.608 8.16 3.18 -5
9/20/2022 12:30:00 PM -12.44 9.608 8.15 3.18 -5
9/20/2022 12:45:00 PM -12.44 9.608 8.14 3.15 -5
9/20/2022 1:00:00 PM -12.44 9.608 8.13 3.15 -5
9/20/2022 1:15:00 PM -12.44 9.608 8.12 3.12 -5
9/20/2022 1:30:00 PM -12.44 9.608 8.11 3.2 -5
9/20/2022 1:45:00 PM -12.44 9.608 8.1 3.24 -5
9/20/2022 2:00:00 PM -12.44 9.608 8.09 3.15 -5
9/20/2022 2:15:00 PM -12.44 9.608 8.09 3.31 -5
9/20/2022 2:30:00 PM -12.44 9.608 8.08 3.1 -5
9/20/2022 2:45:00 PM -12.44 9.608 8.08 3.13 -5
9/20/2022 3:00:00 PM -12.44 9.608 8.08 3.1 -5
9/20/2022 3:15:00 PM -12.44 9.608 8.09 3.11 -5
9/20/2022 3:30:00 PM -12.44 9.608 8.1 3.04 -5
9/20/2022 3:45:00 PM -12.44 9.608 8.1 3.01 -5
9/20/2022 4:00:00 PM -12.44 9.608 8.11 3.03 -5
9/20/2022 4:15:00 PM -12.44 9.608 8.11 3.02 -5
9/20/2022 4:30:00 PM -12.44 9.608 8.12 3.11 -5
9/20/2022 4:45:00 PM -12.44 9.608 8.12 3.03 -5
9/20/2022 5:00:00 PM -12.44 9.608 8.12 3.08 -5
9/20/2022 5:15:00 PM -12.44 9.608 8.14 3.12 -5
9/20/2022 5:30:00 PM -12.44 9.608 8.14 3.12 -5
9/20/2022 5:45:00 PM -12.44 9.608 8.14 3.17 -5
9/20/2022 6:00:00 PM -12.44 9.608 8.14 3.24 -5
9/20/2022 6:15:00 PM -12.44 9.608 8.12 3.46 -5
9/20/2022 6:30:00 PM -12.44 9.608 8.14 3.34 -5
9/20/2022 6:45:00 PM -12.44 9.608 8.14 3.23 -5
9/20/2022 7:00:00 PM -12.44 9.608 8.14 3.3 -5
9/20/2022 7:15:00 PM -12.44 9.608 8.13 3.32 -5
9/20/2022 7:30:00 PM -12.44 9.608 8.13 3.35 -5
9/20/2022 7:45:00 PM -12.44 9.608 8.14 3.45 -5
9/20/2022 8:00:00 PM -12.44 9.608 8.15 3.35 -5
9/20/2022 8:15:00 PM -12.44 9.608 8.15 3.5 -5
9/20/2022 8:30:00 PM -12.44 9.608 8.15 3.55 -5
9/20/2022 8:45:00 PM -12.44 9.608 8.16 3.46 -5
9/20/2022 9:00:00 PM -12.44 9.608 8.17 3.56 -5
9/20/2022 9:15:00 PM -12.44 9.608 8.19 3.73 -5
9/20/2022 9:30:00 PM -12.44 9.608 8.2 3.74 -5
9/20/2022 9:45:00 PM -12.44 9.608 8.22 3.72 -5
9/20/2022 10:00:00 PM -12.44 9.608 8.24 3.71 -5
9/20/2022 10:15:00 PM -12.44 9.608 8.27 3.82 -5
9/20/2022 10:30:00 PM -12.44 9.608 8.3 3.83 -5
9/20/2022 10:45:00 PM -12.44 9.608 8.32 3.9 -5
9/20/2022 11:00:00 PM -12.44 9.608 8.35 3.83 -5
9/20/2022 11:15:00 PM -12.44 9.608 8.37 3.77 -5
9/20/2022 11:30:00 PM -12.44 9.608 8.39 3.83 -5
9/20/2022 11:45:00 PM -12.44 9.608 8.4 3.81 -5
9/21/2022 12:00:00 AM -12.44 9.608 8.43 3.89 -5
9/21/2022 12:15:00 AM -12.44 9.608 8.45 3.87 -5
9/21/2022 12:30:00 AM -12.44 9.608 8.46 3.87 -5
9/21/2022 12:45:00 AM -12.44 9.608 8.48 4.03 -5
9/21/2022 1:00:00 AM -12.44 9.608 8.49 3.95 -5
9/21/2022 1:15:00 AM -12.44 9.608 8.5 4.19 -5
9/21/2022 1:30:00 AM -12.44 9.608 8.52 4.03 -5
9/21/2022 1:45:00 AM -12.44 9.608 8.54 3.99 -5
9/21/2022 2:00:00 AM -12.44 9.608 8.55 4.01 -5
9/21/2022 2:15:00 AM -12.44 9.608 8.56 4.01 -5
9/21/2022 2:30:00 AM -12.44 9.608 8.59 4.12 -5
9/21/2022 2:45:00 AM -12.44 9.608 8.62 4 -5
9/21/2022 3:00:00 AM -12.44 9.608 8.64 4.04 -5
9/21/2022 3:15:00 AM -12.44 9.608 8.71 4.01 -5
9/21/2022 3:30:00 AM -12.44 9.608 8.66 4.04 -5
9/21/2022 3:45:00 AM -12.44 9.608 8.61 4.01 -5
9/21/2022 4:00:00 AM -12.44 9.608 8.63 4.02 -5
9/21/2022 4:15:00 AM -12.44 9.608 8.6 4.04 -5
9/21/2022 4:30:00 AM -12.44 9.608 8.6 3.98 -5
9/21/2022 4:45:00 AM -12.44 9.608 8.59 4.01 -5
9/21/2022 5:00:00 AM -12.44 9.608 8.56 3.97 -5
9/21/2022 5:15:00 AM -12.44 9.608 8.58 4.02 -5
9/21/2022 5:30:00 AM -12.44 9.608 8.55 4.01 -5
9/21/2022 5:45:00 AM -12.44 9.608 8.54 3.98 -5
9/21/2022 6:00:00 AM -12.44 9.608 8.52 3.94 -5
9/21/2022 6:15:00 AM -12.44 9.608 8.51 4.01 -5
9/21/2022 6:30:00 AM -12.44 9.608 8.52 4.06 -5
9/21/2022 6:45:00 AM -12.44 9.608 8.48 4.1 -5
9/21/2022 7:00:00 AM -12.44 9.608 8.5 3.92 -5
9/21/2022 7:15:00 AM -25 -13 8.53 4.28 -5
9/21/2022 7:30:00 AM 3.38 38.084 8.54 4.22 -5
9/21/2022 7:45:00 AM 3.62 38.516 8.41 3.9 -5
9/21/2022 8:00:00 AM 12.57 54.626 8.43 3.72 -5
9/21/2022 8:15:00 AM 18.1 64.58 8.46 3.6 -5
9/21/2022 8:30:00 AM 22.66 72.788 8.46 3.48 -5
9/21/2022 8:45:00 AM 22.18 71.924 8.47 3.47 -5
9/21/2022 9:00:00 AM 23.15 73.67 8.51 3.39 -5
9/21/2022 9:15:00 AM 22.03 71.654 8.48 3.22 -5
9/21/2022 9:30:00 AM 22.66 72.788 8.52 3.25 -5
9/21/2022 9:45:00 AM 22.79 73.022 8.55 3.22 -5
9/21/2022 10:00:00 AM 22.29 72.122 8.54 3.18 -5
9/21/2022 10:15:00 AM 22.92 73.256 8.54 3.18 -5
9/21/2022 10:30:00 AM 22.29 72.122 8.52 3.08 -5
9/21/2022 10:45:00 AM 22.66 72.788 8.51 3.08 -5
9/21/2022 11:00:00 AM 22.92 73.256 8.47 3 -5
9/21/2022 11:15:00 AM 22.55 72.59 8.45 2.98 -5
9/21/2022 11:30:00 AM 23.04 73.472 8.41 3.05 -5
9/21/2022 11:45:00 AM 22.55 72.59 8.39 2.95 -5
9/21/2022 12:00:00 PM 23.03 73.454 8.37 3 -5
9/21/2022 12:15:00 PM 22.79 73.022 8.35 2.93 -5
9/21/2022 12:30:00 PM 23.04 73.472 8.34 2.91 -5
9/21/2022 12:45:00 PM 23.15 73.67 8.32 3.06 -5
9/21/2022 1:00:00 PM 23.03 73.454 8.31 3 -5
9/21/2022 1:15:00 PM 23.41 74.138 8.29 2.93 -5
9/21/2022 1:30:00 PM 23.03 73.454 8.29 2.92 -5
9/21/2022 1:45:00 PM 23.41 74.138 8.28 2.88 -5
9/21/2022 2:00:00 PM 23.28 73.904 8.28 2.92 -5
9/21/2022 2:15:00 PM 23.53 74.354 8.28 2.84 -5
9/21/2022 2:30:00 PM 23.53 74.354 8.28 2.85 -5
9/21/2022 2:45:00 PM 23.53 74.354 8.29 2.88 -5
9/21/2022 3:00:00 PM 23.78 74.804 8.3 2.99 -5
9/21/2022 3:15:00 PM 23.03 73.454 8.31 2.81 -5
9/21/2022 3:30:00 PM 23.9 75.02 8.39 2.89 -5
9/21/2022 3:45:00 PM 23.41 74.138 8.44 2.86 -5
9/21/2022 4:00:00 PM 23.66 74.588 8.45 2.75 -5
9/21/2022 4:15:00 PM 23.66 74.588 8.47 2.77 -5
9/21/2022 4:30:00 PM 23.41 74.138 8.46 2.79 -5
9/21/2022 4:45:00 PM 24.04 75.272 8.46 2.72 -5
9/21/2022 5:00:00 PM 23.41 74.138 8.44 2.75 -5
9/21/2022 5:15:00 PM 24.17 75.506 8.45 3.02 -5
9/21/2022 5:30:00 PM 23.53 74.354 8.46 2.9 -5
9/21/2022 5:45:00 PM 24.04 75.272 8.45 3.16 -5
9/21/2022 6:00:00 PM 23.78 74.804 8.44 2.99 -5
9/21/2022 6:15:00 PM 23.9 75.02 8.43 2.89 -5
9/21/2022 6:30:00 PM 24.04 75.272 8.42 2.88 -5
9/21/2022 6:45:00 PM 23.66 74.588 8.39 2.88 -5
9/21/2022 7:00:00 PM 24.17 75.506 8.37 2.91 -5
9/21/2022 7:15:00 PM 23.77 74.786 8.38 2.96 -5
9/21/2022 7:30:00 PM 24.04 75.272 8.37 2.97 -5
9/21/2022 7:45:00 PM 23.78 74.804 8.36 3.14 -5
9/21/2022 8:00:00 PM 23.78 74.804 8.35 3.12 -5
9/21/2022 8:15:00 PM 23.9 75.02 8.34 3.16 -5
9/21/2022 8:30:00 PM 23.53 74.354 8.34 3.23 -5
9/21/2022 8:45:00 PM 24.04 75.272 8.33 3.21 -5
9/21/2022 9:00:00 PM 23.53 74.354 8.33 3.2 -5
9/21/2022 9:15:00 PM 23.78 74.804 8.33 3.29 -5
9/21/2022 9:30:00 PM 23.78 74.804 8.34 3.33 -5
9/21/2022 9:45:00 PM 23.53 74.354 8.34 3.39 -5
9/21/2022 10:00:00 PM 23.89 75.002 8.35 3.42 -5
9/21/2022 10:15:00 PM 23.53 74.354 8.36 3.48 -5
9/21/2022 10:30:00 PM 23.66 74.588 8.37 3.45 -5
9/21/2022 10:45:00 PM 23.53 74.354 8.39 3.39 -5
9/21/2022 11:00:00 PM 23.53 74.354 8.4 3.48 -5
9/21/2022 11:15:00 PM 23.66 74.588 8.42 3.48 -5
9/21/2022 11:30:00 PM 23.41 74.138 8.43 3.44 -5
9/21/2022 11:45:00 PM 23.78 74.804 8.43 3.48 -5
9/22/2022 12:00:00 AM 23.41 74.138 8.45 3.49 -5
9/22/2022 12:15:00 AM 23.53 74.354 8.46 3.49 -5
9/22/2022 12:30:00 AM 23.53 74.354 8.46 3.54 -5
9/22/2022 12:45:00 AM 23.41 74.138 8.47 3.58 -5
9/22/2022 1:00:00 AM 23.66 74.588 8.47 3.64 -5
9/22/2022 1:15:00 AM 23.41 74.138 8.47 3.73 -5
9/22/2022 1:30:00 AM 23.66 74.588 8.48 3.85 -5
9/22/2022 1:45:00 AM 23.53 74.354 8.49 3.73 -5
9/22/2022 2:00:00 AM 23.41 74.138 8.49 3.75 -5
9/22/2022 2:15:00 AM 23.66 74.588 8.48 3.75 -5
9/22/2022 2:30:00 AM 23.28 73.904 8.48 3.67 -5
9/22/2022 2:45:00 AM 23.66 74.588 8.49 3.75 -5
9/22/2022 3:00:00 AM 23.41 74.138 8.5 3.78 -5
9/22/2022 3:15:00 AM 23.53 74.354 8.5 3.76 -5
9/22/2022 3:30:00 AM 23.53 74.354 8.51 3.77 -5
9/22/2022 3:45:00 AM 23.41 74.138 8.51 3.81 -5
9/22/2022 4:00:00 AM 23.53 74.354 8.51 3.83 -5
9/22/2022 4:15:00 AM 23.28 73.904 8.52 3.91 -5
9/22/2022 4:30:00 AM 23.53 74.354 8.52 3.89 -5
9/22/2022 4:45:00 AM 23.28 73.904 8.52 3.79 -5
9/22/2022 5:00:00 AM 23.41 74.138 8.52 3.78 -5
9/22/2022 5:15:00 AM 23.41 74.138 8.51 3.77 -5
9/22/2022 5:30:00 AM 23.28 73.904 8.51 3.78 -5
9/22/2022 5:45:00 AM 23.41 74.138 8.5 3.92 -5
9/22/2022 6:00:00 AM 23.15 73.67 8.51 3.83 -5
9/22/2022 6:15:00 AM 23.41 74.138 8.51 3.82 -5
9/22/2022 6:30:00 AM 23.15 73.67 8.51 3.79 -5
9/22/2022 6:45:00 AM 23.28 73.904 8.51 3.84 -5
9/22/2022 7:00:00 AM 23.15 73.67 8.5 3.87 -5
9/22/2022 7:15:00 AM 23.15 73.67 8.56 3.63 -5
9/22/2022 7:30:00 AM 23.15 73.67 8.56 3.6 -5
9/22/2022 7:45:00 AM 23.03 73.454 8.57 3.6 -5
9/22/2022 8:00:00 AM 23.15 73.67 8.57 3.59 -5
9/22/2022 8:15:00 AM 23.03 73.454 8.58 3.55 -5
9/22/2022 8:30:00 AM 23.03 73.454 8.59 3.4 -5
9/22/2022 8:45:00 AM 23.03 73.454 8.61 3.29 -5
9/22/2022 9:00:00 AM 22.92 73.256 8.61 3.11 -5
9/22/2022 9:15:00 AM 23.15 73.67 8.58 3.11 -5
9/22/2022 9:30:00 AM 22.92 73.256 8.53 3.04 -5
9/22/2022 9:45:00 AM 23.03 73.454 8.56 3.07 -5
9/22/2022 10:00:00 AM 23.03 73.454 8.53 2.98 -5
9/22/2022 10:15:00 AM 22.92 73.256 8.49 3.03 -5
9/22/2022 10:30:00 AM 23.03 73.454 8.46 3.16 -5
9/22/2022 10:45:00 AM 22.79 73.022 8.41 3.06 -5
9/22/2022 11:00:00 AM 22.92 73.256 8.42 3.05 -5
9/22/2022 11:15:00 AM 22.79 73.022 8.39 3 -5
9/22/2022 11:30:00 AM 22.79 73.022 8.41 3 -5
9/22/2022 11:45:00 AM 22.92 73.256 8.43 2.92 -5
9/22/2022 12:00:00 PM 22.79 73.022 8.37 2.93 -5
9/22/2022 12:15:00 PM 22.92 73.256 8.4 2.91 -5
9/22/2022 12:30:00 PM 22.66 72.788 8.37 2.93 -5
9/22/2022 12:45:00 PM 22.92 73.256 8.41 2.92 -5
9/22/2022 1:00:00 PM 22.79 73.022 8.39 2.84 -5
9/22/2022 1:15:00 PM 22.79 73.022 8.42 2.8 -5
9/22/2022 1:30:00 PM 22.79 73.022 8.45 2.86 -5
9/22/2022 1:45:00 PM 22.92 73.256 8.46 2.81 -5
9/22/2022 2:00:00 PM 22.92 73.256 8.45 2.81 -5
9/22/2022 2:15:00 PM 22.66 72.788 8.32 2.76 -5
9/22/2022 2:30:00 PM 22.79 73.022 8.39 2.8 -5
9/22/2022 2:45:00 PM 22.92 73.256 8.49 2.74 -5
9/22/2022 3:00:00 PM 22.92 73.256 8.52 2.81 -5
9/22/2022 3:15:00 PM 23.15 73.67 8.55 2.73 -5
9/22/2022 3:30:00 PM 23.03 73.454 8.54 2.66 -5
9/22/2022 3:45:00 PM 23.03 73.454 8.53 2.71 -5
9/22/2022 4:00:00 PM 23.03 73.454 8.5 2.77 -5
9/22/2022 4:15:00 PM 22.92 73.256 8.43 2.72 -5
9/22/2022 4:30:00 PM 23.03 73.454 8.49 2.7 -5
9/22/2022 4:45:00 PM 23.03 73.454 8.53 2.77 -5
9/22/2022 5:00:00 PM 22.92 73.256 8.47 2.87 -5
9/22/2022 5:15:00 PM 23.03 73.454 8.39 2.94 -5
9/22/2022 5:30:00 PM 22.79 73.022 8.39 2.94 -5
9/22/2022 5:45:00 PM 22.79 73.022 8.37 2.99 -5
9/22/2022 6:00:00 PM 22.79 73.022 8.37 3.32 -5
9/22/2022 6:15:00 PM 22.55 72.59 8.32 3.38 -5
9/22/2022 6:30:00 PM 22.55 72.59 8.32 3.31 -5
9/22/2022 6:45:00 PM 22.29 72.122 8.31 3.19 -5
9/22/2022 7:00:00 PM 22.29 72.122 8.31 3.33 -5
9/22/2022 7:15:00 PM 22.29 72.122 8.35 3.49 -5
9/22/2022 7:30:00 PM 22.03 71.654 8.29 3.59 -5
9/22/2022 7:45:00 PM 22.03 71.654 8.29 3.54 -5
9/22/2022 8:00:00 PM 22.03 71.654 8.27 4.23 -5
9/22/2022 8:15:00 PM 21.79 71.222 8.24 4.43 -5
9/22/2022 8:30:00 PM 21.92 71.456 8.26 4.21 -5
9/22/2022 8:45:00 PM 21.92 71.456 8.26 3.94 -5
9/22/2022 9:00:00 PM 21.66 70.988 8.26 4.06 -5
9/22/2022 9:15:00 PM 21.66 70.988 8.27 3.84 -5
9/22/2022 9:30:00 PM 21.79 71.222 8.31 3.74 -5
9/22/2022 9:45:00 PM 21.66 70.988 8.31 3.84 -5
9/22/2022 10:00:00 PM 21.66 70.988 8.27 3.77 -5
9/22/2022 10:15:00 PM 21.66 70.988 8.26 3.93 -5
9/22/2022 10:30:00 PM 21.55 70.79 8.24 3.76 -5
9/22/2022 10:45:00 PM 21.42 70.556 8.21 3.81 -5
9/22/2022 11:00:00 PM 21.42 70.556 8.23 3.88 -5
9/22/2022 11:15:00 PM 21.42 70.556 8.22 3.93 -5
9/22/2022 11:30:00 PM 21.05 69.89 8.19 4.22 -5
9/22/2022 11:45:00 PM 21.05 69.89 8.2 4.01 -5
9/23/2022 12:00:00 AM 21.05 69.89 8.21 4.07 -5
9/23/2022 12:15:00 AM 20.79 69.422 8.2 4 -5
9/23/2022 12:30:00 AM 20.79 69.422 8.21 3.94 -5
9/23/2022 12:45:00 AM 20.79 69.422 8.23 4.01 -5
9/23/2022 1:00:00 AM 20.53 68.954 8.23 3.93 -5
9/23/2022 1:15:00 AM 20.53 68.954 8.25 3.97 -5
9/23/2022 1:30:00 AM 20.53 68.954 8.27 3.88 -5
9/23/2022 1:45:00 AM 20.41 68.738 8.25 3.89 -5
9/23/2022 2:00:00 AM 20.41 68.738 8.28 3.86 -5
9/23/2022 2:15:00 AM 20.42 68.756 8.3 3.85 -5
9/23/2022 2:30:00 AM 20.3 68.54 8.29 3.8 -5
9/23/2022 2:45:00 AM 20.3 68.54 8.31 3.79 -5
9/23/2022 3:00:00 AM 20.3 68.54 8.33 3.76 -5
9/23/2022 3:15:00 AM 20.04 68.07201 8.28 3.77 -5
9/23/2022 3:30:00 AM 20.15 68.27 8.31 3.74 -5
9/23/2022 3:45:00 AM 20.16 68.288 8.33 3.71 -5
9/23/2022 4:00:00 AM 20.04 68.07201 8.33 3.75 -5
9/23/2022 4:15:00 AM 20.04 68.07201 8.35 3.69 -5
9/23/2022 4:30:00 AM 20.04 68.07201 8.35 3.71 -5
9/23/2022 4:45:00 AM 19.78 67.604 8.32 3.72 -5
9/23/2022 5:00:00 AM 19.79 67.622 8.32 3.67 -5
9/23/2022 5:15:00 AM 19.78 67.604 8.32 3.74 -5
9/23/2022 5:30:00 AM 19.55 67.19 8.3 3.78 -5
9/23/2022 5:45:00 AM 19.41 66.938 8.3 3.76 -5
9/23/2022 6:00:00 AM 19.42 66.956 8.31 3.71 -5
9/23/2022 6:15:00 AM 19.42 66.956 8.3 3.75 -5
9/23/2022 6:30:00 AM 19.17 66.506 8.27 3.94 -5
9/23/2022 6:45:00 AM 19.17 66.506 8.29 3.87 -5
9/23/2022 7:00:00 AM 19.17 66.506 8.28 3.93 -5
9/23/2022 7:15:00 AM 19.04 66.272 8.25 3.65 -5
9/23/2022 7:30:00 AM 19.04 66.272 8.23 3.2 -5
9/23/2022 7:45:00 AM 19.04 66.272 8.25 2.97 -5
9/23/2022 8:00:00 AM 18.9 66.02 8.24 2.85 -5
9/23/2022 8:15:00 AM 18.78 65.804 8.22 2.82 -5
9/23/2022 8:30:00 AM 18.78 65.804 8.23 2.75 -5
9/23/2022 8:45:00 AM 18.91 66.038 8.23 2.75 -5
9/23/2022 9:00:00 AM 18.78 65.804 8.22 2.61 -5
9/23/2022 9:15:00 AM 18.78 65.804 8.23 2.59 -5
9/23/2022 9:30:00 AM 18.78 65.804 8.24 2.6 -5
9/23/2022 9:45:00 AM 18.78 65.804 8.25 2.58 -5
9/23/2022 10:00:00 AM 18.78 65.804 8.29 2.5 -5
9/23/2022 10:15:00 AM 18.64 65.552 8.26 2.52 -5
9/23/2022 10:30:00 AM 18.78 65.804 8.31 2.53 -5
9/23/2022 10:45:00 AM 18.91 66.038 8.34 2.56 -5
9/23/2022 11:00:00 AM 18.91 66.038 8.36 2.53 -5
9/23/2022 11:15:00 AM 19.04 66.272 8.39 2.49 -5
9/23/2022 11:30:00 AM 18.91 66.038 8.39 2.5 -5
9/23/2022 11:45:00 AM 18.91 66.038 8.37 2.48 -5
9/23/2022 12:00:00 PM 18.91 66.038 8.37 2.58 -5
9/23/2022 12:15:00 PM 19.04 66.272 8.38 2.56 -5
9/23/2022 12:30:00 PM 19.17 66.506 8.39 2.5 -5
9/23/2022 12:45:00 PM 19.04 66.272 8.41 2.51 -5
9/23/2022 1:00:00 PM 19.17 66.506 8.42 2.51 -5
9/23/2022 1:15:00 PM 19.17 66.506 8.43 2.53 -5
9/23/2022 1:30:00 PM 19.41 66.938 8.42 2.52 -5
9/23/2022 1:45:00 PM 19.42 66.956 8.42 2.49 -5
9/23/2022 2:00:00 PM 19.3 66.74 8.42 2.47 -5
9/23/2022 2:15:00 PM 19.41 66.938 8.41 2.48 -5
9/23/2022 2:30:00 PM 19.55 67.19 8.4 2.48 -5
9/23/2022 2:45:00 PM 19.54 67.172 8.39 2.48 -5
9/23/2022 3:00:00 PM 19.67 67.406 8.38 2.46 -5
9/23/2022 3:15:00 PM 19.55 67.19 8.38 2.46 -5
9/23/2022 3:30:00 PM 19.67 67.406 8.38 2.48 -5
9/23/2022 3:45:00 PM 19.73 67.514 8.37 2.44 -5
9/23/2022 4:00:00 PM 19.78 67.604 8.36 2.49 -5
9/23/2022 4:15:00 PM 19.67 67.406 8.37 2.5 -5
9/23/2022 4:30:00 PM 19.78 67.604 8.37 2.49 -5
9/23/2022 4:45:00 PM 19.78 67.604 8.37 2.46 -5
9/23/2022 5:00:00 PM 19.78 67.604 8.37 2.43 -5
9/23/2022 5:15:00 PM 19.78 67.604 8.37 2.44 -5
9/23/2022 5:30:00 PM 19.67 67.406 8.38 2.4 -5
9/23/2022 5:45:00 PM 19.67 67.406 8.39 2.42 -5
9/23/2022 6:00:00 PM 19.68 67.424 8.39 2.44 -5
9/23/2022 6:15:00 PM 19.54 67.172 8.4 2.37 -5
9/23/2022 6:30:00 PM 19.55 67.19 8.41 2.37 -5
9/23/2022 6:45:00 PM 19.55 67.19 8.41 2.39 -5
9/23/2022 7:00:00 PM 19.41 66.938 8.44 2.44 -5
9/23/2022 7:15:00 PM 19.41 66.938 8.48 2.77 -5
9/23/2022 7:30:00 PM 19.3 66.74 8.35 2.49 -5
9/23/2022 7:45:00 PM 19.3 66.74 8.38 2.46 -5
9/23/2022 8:00:00 PM 19.17 66.506 8.37 2.58 -5
9/23/2022 8:15:00 PM 19.04 66.272 8.35 2.5 -5
9/23/2022 8:30:00 PM 19.04 66.272 8.38 2.62 -5
9/23/2022 8:45:00 PM 19.04 66.272 8.37 2.56 -5
9/23/2022 9:00:00 PM 18.91 66.038 8.37 2.6 -5
9/23/2022 9:15:00 PM 19.04 66.272 8.38 2.65 -5
9/23/2022 9:30:00 PM 18.78 65.804 8.35 2.66 -5
9/23/2022 9:45:00 PM 18.91 66.038 8.36 2.74 -5
9/23/2022 10:00:00 PM 18.91 66.038 8.38 2.73 -5
9/23/2022 10:15:00 PM 18.78 65.804 8.35 2.79 -5
9/23/2022 10:30:00 PM 18.78 65.804 8.38 2.85 -5
9/23/2022 10:45:00 PM 18.78 65.804 8.38 2.85 -5
9/23/2022 11:00:00 PM 18.64 65.552 8.35 2.93 -5
9/23/2022 11:15:00 PM 18.53 65.354 8.39 2.89 -5
9/23/2022 11:30:00 PM 18.52 65.336 8.4 2.86 -5
9/23/2022 11:45:00 PM 18.41 65.138 8.39 2.86 -5
9/24/2022 12:00:00 AM 18.41 65.138 8.42 2.88 -5
9/24/2022 12:15:00 AM 18.41 65.138 8.43 3.02 -5
9/24/2022 12:30:00 AM 18.15 64.67 8.42 2.92 -5
9/24/2022 12:45:00 AM 18.26 64.868 8.46 2.95 -5
9/24/2022 1:00:00 AM 18.26 64.868 8.48 2.98 -5
9/24/2022 1:15:00 AM 18.15 64.67 8.47 2.98 -5
9/24/2022 1:30:00 AM 18.26 64.868 8.53 3 -5
9/24/2022 1:45:00 AM 18.41 65.138 8.54 2.97 -5
9/24/2022 2:00:00 AM 18.15 64.67 8.5 2.99 -5
9/24/2022 2:15:00 AM 18.15 64.67 8.54 3.01 -5
9/24/2022 2:30:00 AM 18.41 65.138 8.56 3.17 -5
9/24/2022 2:45:00 AM 18.15 64.67 8.52 3.05 -5
9/24/2022 3:00:00 AM 18.15 64.67 8.59 3.05 -5
9/24/2022 3:15:00 AM 18.26 64.868 8.59 3.03 -5
9/24/2022 3:30:00 AM 18.15 64.67 8.54 3.02 -5
9/24/2022 3:45:00 AM 18.15 64.67 8.59 3.01 -5
9/24/2022 4:00:00 AM 18.15 64.67 8.59 3.02 -5
9/24/2022 4:15:00 AM 18.03 64.454 8.56 3.04 -5
9/24/2022 4:30:00 AM 18.03 64.454 8.61 2.97 -5
9/24/2022 4:45:00 AM 18.26 64.868 8.61 3.01 -5
9/24/2022 5:00:00 AM 18.03 64.454 8.57 3 -5
9/24/2022 5:15:00 AM 18.03 64.454 8.56 3 -5
9/24/2022 5:30:00 AM 18.03 64.454 8.55 3 -5
9/24/2022 5:45:00 AM 17.9 64.22 8.56 3.01 -5
9/24/2022 6:00:00 AM 17.79 64.022 8.54 3.05 -5
9/24/2022 6:15:00 AM 17.79 64.022 8.57 2.89 -5
9/24/2022 6:30:00 AM 17.79 64.022 8.55 2.9 -5
9/24/2022 6:45:00 AM 17.67 63.806 8.53 2.92 -5
9/24/2022 7:00:00 AM 17.66 63.788 8.55 2.84 -5
9/24/2022 7:15:00 AM 17.66 63.788 8.56 2.77 -5
9/24/2022 7:30:00 AM 17.53 63.554 8.48 3.46 -5
9/24/2022 7:45:00 AM 17.53 63.554 8.5 3.05 -5
9/24/2022 8:00:00 AM 17.42 63.356 8.51 3.01 -5
9/24/2022 8:15:00 AM 17.53 63.554 8.53 3 -5
9/24/2022 8:30:00 AM 17.53 63.554 8.53 2.96 -5
9/24/2022 8:45:00 AM 17.29 63.122 8.53 3.02 -5
9/24/2022 9:00:00 AM 17.42 63.356 8.53 2.85 -5
9/24/2022 9:15:00 AM 17.42 63.356 8.53 2.93 -5
9/24/2022 9:30:00 AM 17.42 63.356 8.57 2.84 -5
9/24/2022 9:45:00 AM 17.29 63.122 8.54 2.81 -5
9/24/2022 10:00:00 AM 17.42 63.356 8.57 2.74 -5
9/24/2022 10:15:00 AM 17.42 63.356 8.61 2.67 -5
9/24/2022 10:30:00 AM 17.53 63.554 8.62 2.5 -5
9/24/2022 10:45:00 AM 17.42 63.356 8.62 2.5 -5
9/24/2022 11:00:00 AM 17.53 63.554 8.62 2.86 -5
9/24/2022 11:15:00 AM 17.66 63.788 8.67 2.75 -5
9/24/2022 11:30:00 AM 17.66 63.788 8.67 2.68 -5
9/24/2022 11:45:00 AM 17.53 63.554 8.67 2.67 -5
9/24/2022 12:00:00 PM 17.79 64.022 8.67 2.46 -5
9/24/2022 12:15:00 PM 17.9 64.22 8.7 2.39 -5
9/24/2022 12:30:00 PM 18.03 64.454 8.71 2.39 -5
9/24/2022 12:45:00 PM 18.15 64.67 8.71 2.8 -5
9/24/2022 1:00:00 PM 18.41 65.138 8.66 2.59 -5
9/24/2022 1:15:00 PM 18.52 65.336 8.64 2.53 -5
9/24/2022 1:30:00 PM 18.41 65.138 8.61 2.51 -5
9/24/2022 1:45:00 PM 18.52 65.336 8.6 2.51 -5
9/24/2022 2:00:00 PM 18.64 65.552 8.58 2.5 -5
9/24/2022 2:15:00 PM 18.64 65.552 8.56 2.49 -5
9/24/2022 2:30:00 PM 18.78 65.804 8.55 2.46 -5
9/24/2022 2:45:00 PM 18.78 65.804 8.54 2.5 -5
9/24/2022 3:00:00 PM 18.78 65.804 8.54 2.67 -5
9/24/2022 3:15:00 PM 18.91 66.038 8.53 3.14 -5
9/24/2022 3:30:00 PM 19.04 66.272 8.52 2.62 -5
9/24/2022 3:45:00 PM 19.17 66.506 8.5 2.98 -5
9/24/2022 4:00:00 PM 19.3 66.74 8.5 2.8 -5
9/24/2022 4:15:00 PM 19.17 66.506 8.5 2.74 -5
9/24/2022 4:30:00 PM 19.3 66.74 8.5 2.6 -5
9/24/2022 4:45:00 PM 19.3 66.74 8.5 2.47 -5
9/24/2022 5:00:00 PM 19.3 66.74 8.5 2.54 -5
9/24/2022 5:15:00 PM 19.41 66.938 8.5 2.58 -5
9/24/2022 5:30:00 PM 19.3 66.74 8.49 2.53 -5
9/24/2022 5:45:00 PM 19.41 66.938 8.49 2.5 -5
9/24/2022 6:00:00 PM 19.42 66.956 8.48 2.5 -5
9/24/2022 6:15:00 PM 19.41 66.938 8.48 2.56 -5
9/24/2022 6:30:00 PM 19.41 66.938 8.47 2.57 -5
9/24/2022 6:45:00 PM 19.41 66.938 8.47 2.55 -5
9/24/2022 7:00:00 PM 19.41 66.938 8.47 2.54 -5
9/24/2022 7:15:00 PM 19.42 66.956 8.46 2.57 -5
9/24/2022 7:30:00 PM 19.3 66.74 8.46 2.51 -5
9/24/2022 7:45:00 PM 19.3 66.74 8.46 2.47 -5
9/24/2022 8:00:00 PM 19.3 66.74 8.45 2.55 -5
9/24/2022 8:15:00 PM 19.41 66.938 8.45 2.51 -5
9/24/2022 8:30:00 PM 19.3 66.74 8.46 2.56 -5
9/24/2022 8:45:00 PM 19.17 66.506 8.45 2.56 -5
9/24/2022 9:00:00 PM 19.17 66.506 8.44 2.6 -5
9/24/2022 9:15:00 PM 19.3 66.74 8.44 3.44 -5
9/24/2022 9:30:00 PM 19.04 66.272 8.47 3.03 -5
9/24/2022 9:45:00 PM 19.17 66.506 8.48 2.99 -5
9/24/2022 10:00:00 PM 19.04 66.272 8.5 2.99 -5
9/24/2022 10:15:00 PM 19.04 66.272 8.51 3.04 -5
9/24/2022 10:30:00 PM 19.04 66.272 8.52 3.07 -5
9/24/2022 10:45:00 PM 18.91 66.038 8.54 3.07 -5
9/24/2022 11:00:00 PM 19.04 66.272 8.55 3.16 -5
9/24/2022 11:15:00 PM 18.91 66.038 8.56 3.16 -5
9/24/2022 11:30:00 PM 18.91 66.038 8.57 3.14 -5
9/24/2022 11:45:00 PM 19.04 66.272 8.57 3.19 -5
9/25/2022 12:00:00 AM 18.91 66.038 8.58 3.16 -5
9/25/2022 12:15:00 AM 19.04 66.272 8.59 3.08 -5
9/25/2022 12:30:00 AM 19.04 66.272 8.58 3.3 -5
9/25/2022 12:45:00 AM 19.04 66.272 8.59 3.36 -5
9/25/2022 1:00:00 AM 19.04 66.272 8.6 3.35 -5
9/25/2022 1:15:00 AM 18.92 66.056 8.61 3.36 -5
9/25/2022 1:30:00 AM 19.04 66.272 8.61 3.35 -5
9/25/2022 1:45:00 AM 19.04 66.272 8.6 3.46 -5
9/25/2022 2:00:00 AM 19.04 66.272 8.62 3.48 -5
9/25/2022 2:15:00 AM 19.17 66.506 8.62 3.45 -5
9/25/2022 2:30:00 AM 19.04 66.272 8.62 3.47 -5
9/25/2022 2:45:00 AM 19.04 66.272 8.62 3.56 -5
9/25/2022 3:00:00 AM 19.17 66.506 8.62 3.57 -5
9/25/2022 3:15:00 AM 19.04 66.272 8.62 3.54 -5
9/25/2022 3:30:00 AM 19.04 66.272 8.62 3.65 -5
9/25/2022 3:45:00 AM 19.04 66.272 8.61 3.65 -5
9/25/2022 4:00:00 AM 18.91 66.038 8.61 3.68 -5
9/25/2022 4:15:00 AM 19.17 66.506 8.61 3.67 -5
9/25/2022 4:30:00 AM 18.91 66.038 8.61 3.73 -5
9/25/2022 4:45:00 AM 19.04 66.272 8.61 3.91 -5
9/25/2022 5:00:00 AM 18.91 66.038 8.6 3.79 -5
9/25/2022 5:15:00 AM 18.91 66.038 8.6 3.88 -5
9/25/2022 5:30:00 AM 18.91 66.038 8.6 3.88 -5
9/25/2022 5:45:00 AM 18.78 65.804 8.6 3.93 -5
9/25/2022 6:00:00 AM 18.78 65.804 8.6 3.52 -5
9/25/2022 6:15:00 AM 18.78 65.804 8.58 3.31 -5
9/25/2022 6:30:00 AM 18.78 65.804 8.58 3.29 -5
9/25/2022 6:45:00 AM 18.78 65.804 8.56 3.37 -5
9/25/2022 7:00:00 AM 18.78 65.804 8.56 3.35 -5
9/25/2022 7:15:00 AM 18.78 65.804 8.55 3.4 -5
9/25/2022 7:30:00 AM 18.78 65.804 8.54 3.36 -5
9/25/2022 7:45:00 AM 18.78 65.804 8.55 3.39 -5
9/25/2022 8:00:00 AM 18.78 65.804 8.56 3.39 -5
9/25/2022 8:15:00 AM 18.78 65.804 8.56 3.45 -5
9/25/2022 8:30:00 AM 18.78 65.804 8.56 3.44 -5
9/25/2022 8:45:00 AM 18.78 65.804 8.54 4.9 -5
9/25/2022 9:00:00 AM 18.78 65.804 8.54 4.99 -5
9/25/2022 9:15:00 AM 18.78 65.804 8.55 3.98 -5
9/25/2022 9:30:00 AM 18.78 65.804 8.57 3.74 -5
9/25/2022 9:45:00 AM 18.78 65.804 8.6 3.21 -5
9/25/2022 10:00:00 AM 18.78 65.804 8.59 3.38 -5
9/25/2022 10:15:00 AM 18.78 65.804 8.55 3.3 -5
9/25/2022 10:30:00 AM 18.86 65.948 8.57 3.32 -5
9/25/2022 10:45:00 AM 18.78 65.804 8.57 4.1 -5
9/25/2022 11:00:00 AM 18.91 66.038 8.59 4 -5
9/25/2022 11:15:00 AM 18.91 66.038 8.57 3.67 -5
9/25/2022 11:30:00 AM 18.78 65.804 8.51 3.63 -5
9/25/2022 11:45:00 AM 18.91 66.038 8.57 3.72 -5
9/25/2022 12:00:00 PM 18.91 66.038 8.58 3.67 -5
9/25/2022 12:15:00 PM 18.78 65.804 8.56 3.65 -5
9/25/2022 12:30:00 PM 18.91 66.038 8.53 3.67 -5
9/25/2022 12:45:00 PM 18.78 65.804 8.46 3.64 -5
9/25/2022 1:00:00 PM 18.78 65.804 8.49 3.82 -5
9/25/2022 1:15:00 PM 18.91 66.038 8.53 3.37 -5
9/25/2022 1:30:00 PM 18.78 65.804 8.5 3.24 -5
9/25/2022 1:45:00 PM 18.91 66.038 8.55 3.21 -5
9/25/2022 2:00:00 PM 18.91 66.038 8.56 3.2 -5
9/25/2022 2:15:00 PM 18.78 65.804 8.49 3.24 -5
9/25/2022 2:30:00 PM 18.91 66.038 8.49 3.23 -5
9/25/2022 2:45:00 PM 18.79 65.82201 8.51 3.17 -5
9/25/2022 3:00:00 PM 18.78 65.804 8.52 3.29 -5
9/25/2022 3:15:00 PM 18.91 66.038 8.54 3.26 -5
9/25/2022 3:30:00 PM 19.04 66.272 8.54 3.9 -5
9/25/2022 3:45:00 PM 18.91 66.038 8.52 4.49 -5
9/25/2022 4:00:00 PM 19.17 66.506 8.55 3.85 -5
9/25/2022 4:15:00 PM 19.04 66.272 8.55 3.77 -5
9/25/2022 4:30:00 PM 19.17 66.506 8.57 3.74 -5
9/25/2022 4:45:00 PM 19.17 66.506 8.56 3.17 -5
9/25/2022 5:00:00 PM 19.04 66.272 8.51 3.21 -5
9/25/2022 5:15:00 PM 19.17 66.506 8.54 3.27 -5
9/25/2022 5:30:00 PM 19.17 66.506 8.53 3.35 -5
9/25/2022 5:45:00 PM 19.17 66.506 8.54 3.39 -5
9/25/2022 6:00:00 PM 19.3 66.74 8.56 3.46 -5
9/25/2022 6:15:00 PM 19.04 66.272 8.53 3.42 -5
9/25/2022 6:30:00 PM 19.3 66.74 8.55 3.41 -5
9/25/2022 6:45:00 PM 19.3 66.74 8.55 3.45 -5
9/25/2022 7:00:00 PM 19.17 66.506 8.49 3.43 -5
9/25/2022 7:15:00 PM 19.3 66.74 8.5 3.81 -5
9/25/2022 7:30:00 PM 19.17 66.506 8.46 3.66 -5
9/25/2022 7:45:00 PM 19.17 66.506 8.48 4.03 -5
9/25/2022 8:00:00 PM 19.3 66.74 8.46 4.22 -5
9/25/2022 8:15:00 PM 19.04 66.272 8.41 4.15 -5
9/25/2022 8:30:00 PM 19.17 66.506 8.49 4.17 -5
9/25/2022 8:45:00 PM 19.17 66.506 8.44 4.28 -5
9/25/2022 9:00:00 PM 19.04 66.272 8.44 4.38 -5
9/25/2022 9:15:00 PM 19.17 66.506 8.45 4.48 -5
9/25/2022 9:30:00 PM 18.91 66.038 8.39 4.37 -5
9/25/2022 9:45:00 PM 19.04 66.272 8.44 4.47 -5
9/25/2022 10:00:00 PM 19.04 66.272 8.43 4.42 -5
9/25/2022 10:15:00 PM 19.04 66.272 8.44 4.33 -5
9/25/2022 10:30:00 PM 19.04 66.272 8.47 4.39 -5
9/25/2022 10:45:00 PM 19.04 66.272 8.43 4.32 -5
9/25/2022 11:00:00 PM 19.04 66.272 8.47 4.38 -5
9/25/2022 11:15:00 PM 19.04 66.272 8.45 4.3 -5
9/25/2022 11:30:00 PM 19.04 66.272 8.45 4.25 -5
9/25/2022 11:45:00 PM 19.04 66.272 8.48 4.35 -5
9/26/2022 12:00:00 AM 19.04 66.272 8.44 4.42 -5
9/26/2022 12:15:00 AM 19.04 66.272 8.46 4.52 -5
9/26/2022 12:30:00 AM 19.04 66.272 8.48 4.53 -5
9/26/2022 12:45:00 AM 19.04 66.272 8.42 4.55 -5
9/26/2022 1:00:00 AM 19.3 66.74 8.46 4.54 -5
9/26/2022 1:15:00 AM 19.17 66.506 8.43 4.57 -5
9/26/2022 1:30:00 AM 19.04 66.272 8.43 4.65 -5
9/26/2022 1:45:00 AM 19.17 66.506 8.45 4.69 -5
9/26/2022 2:00:00 AM 19.04 66.272 8.42 4.63 -5
9/26/2022 2:15:00 AM 19.04 66.272 8.45 4.69 -5
9/26/2022 2:30:00 AM 19.04 66.272 8.46 4.78 -5
9/26/2022 2:45:00 AM 19.04 66.272 8.41 4.8 -5
9/26/2022 3:00:00 AM 19.04 66.272 8.45 4.85 -5
9/26/2022 3:15:00 AM 19.04 66.272 8.42 4.78 -5
9/26/2022 3:30:00 AM 18.91 66.038 8.37 4.95 -5
9/26/2022 3:45:00 AM 18.91 66.038 8.4 5 -5
9/26/2022 4:00:00 AM 19.04 66.272 8.34 5.08 -5
9/26/2022 4:15:00 AM 18.91 66.038 8.35 5.13 -5
9/26/2022 4:30:00 AM 18.91 66.038 8.37 5.16 -5
9/26/2022 4:45:00 AM 18.78 65.804 8.3 5.14 -5
9/26/2022 5:00:00 AM 18.91 66.038 8.35 5.24 -5
9/26/2022 5:15:00 AM 19.04 66.272 8.36 5.22 -5
9/26/2022 5:30:00 AM 18.78 65.804 8.29 4.94 -5
9/26/2022 5:45:00 AM 18.91 66.038 8.31 4.99 -5
9/26/2022 6:00:00 AM 18.78 65.804 8.3 4.98 -5
9/26/2022 6:15:00 AM 18.78 65.804 8.24 5.12 -5
9/26/2022 6:30:00 AM 18.78 65.804 8.26 5.09 -5
9/26/2022 6:45:00 AM 18.78 65.804 8.26 5.21 -5
9/26/2022 7:00:00 AM 18.78 65.804 8.2 5.23 -5
9/26/2022 7:15:00 AM 18.78 65.804 8.22 4.81 -5
9/26/2022 7:30:00 AM 18.78 65.804 8.22 4.73 -5
9/26/2022 7:45:00 AM 18.64 65.552 8.16 4.67 -5
9/26/2022 8:00:00 AM 18.78 65.804 8.17 4.67 -5
9/26/2022 8:15:00 AM 18.78 65.804 8.18 4.62 -5
9/26/2022 8:30:00 AM 18.52 65.336 8.12 4.54 -5
9/26/2022 8:45:00 AM 18.63 65.534 8.18 4.2 -5
9/26/2022 9:00:00 AM 18.78 65.804 8.19 4.13 -5
9/26/2022 9:15:00 AM 18.52 65.336 8.15 4.1 -5
9/26/2022 9:30:00 AM 18.64 65.552 8.2 4.11 -5
9/26/2022 9:45:00 AM 18.78 65.804 8.21 4.05 -5
9/26/2022 10:00:00 AM 18.78 65.804 8.21 4.09 -5
9/26/2022 10:15:00 AM 18.78 65.804 8.24 3.95 -5
9/26/2022 10:30:00 AM 18.78 65.804 8.25 3.76 -5
9/26/2022 10:45:00 AM 18.78 65.804 8.25 3.77 -5
9/26/2022 11:00:00 AM 18.78 65.804 8.26 3.76 -5
9/26/2022 11:15:00 AM 18.78 65.804 8.27 3.68 -5
9/26/2022 11:30:00 AM 18.78 65.804 8.22 3.7 -5
9/26/2022 11:45:00 AM 18.91 66.038 8.3 3.62 -5
9/26/2022 12:00:00 PM 19.04 66.272 8.33 4.53 -5
9/26/2022 12:15:00 PM 19.04 66.272 8.34 4.07 -5
9/26/2022 12:30:00 PM 19.17 66.506 8.35 4.03 -5
9/26/2022 12:45:00 PM 19.04 66.272 8.35 3.92 -5
9/26/2022 1:00:00 PM 19.17 66.506 8.31 3.75 -5
9/26/2022 1:15:00 PM 19.3 66.74 8.33 3.4 -5
9/26/2022 1:30:00 PM 19.17 66.506 8.32 3.29 -5
9/26/2022 1:45:00 PM 19.29 66.722 8.33 3.31 -5
9/26/2022 2:00:00 PM 19.3 66.74 8.31 3.34 -5
9/26/2022 2:15:00 PM 19.04 66.272 8.23 3.26 -5
9/26/2022 2:30:00 PM 19.17 66.506 8.3 3.68 -5
9/26/2022 2:45:00 PM 19.3 66.74 8.36 5.12 -5
9/26/2022 3:00:00 PM 19.3 66.74 8.35 4.24 -5
9/26/2022 3:15:00 PM 19.41 66.938 8.37 3.98 -5
9/26/2022 3:30:00 PM 19.41 66.938 8.4 3.99 -5
9/26/2022 3:45:00 PM 19.41 66.938 8.39 3.96 -5
9/26/2022 4:00:00 PM 19.41 66.938 8.39 3.39 -5
9/26/2022 4:15:00 PM 19.41 66.938 8.31 3.22 -5
9/26/2022 4:30:00 PM 19.41 66.938 8.3 3.67 -5
9/26/2022 4:45:00 PM 19.41 66.938 8.39 3.69 -5
9/26/2022 5:00:00 PM 19.41 66.938 8.43 3.74 -5
9/26/2022 5:15:00 PM 19.54 67.172 8.42 3.71 -5
9/26/2022 5:30:00 PM 19.41 66.938 8.32 3.68 -5
9/26/2022 5:45:00 PM 19.41 66.938 8.4 3.63 -5
9/26/2022 6:00:00 PM 19.41 66.938 8.42 3.41 -5
9/26/2022 6:15:00 PM 19.41 66.938 8.4 3.5 -5
9/26/2022 6:30:00 PM 19.41 66.938 8.37 3.41 -5
9/26/2022 6:45:00 PM 19.3 66.74 8.29 3.48 -5
9/26/2022 7:00:00 PM 19.3 66.74 8.34 3.47 -5
9/26/2022 7:15:00 PM 19.41 66.938 8.38 3.46 -5
9/26/2022 7:30:00 PM 19.17 66.506 8.31 5 -5
9/26/2022 7:45:00 PM 19.3 66.74 8.35 4.9 -5
9/26/2022 8:00:00 PM 19.17 66.506 8.33 4.98 -5
9/26/2022 8:15:00 PM 19.17 66.506 8.34 4.68 -5
9/26/2022 8:30:00 PM 19.3 66.74 8.4 4.78 -5
9/26/2022 8:45:00 PM 19.04 66.272 8.36 4.78 -5
9/26/2022 9:00:00 PM 19.04 66.272 8.4 4.73 -5
9/26/2022 9:15:00 PM 19.17 66.506 8.39 4.7 -5
9/26/2022 9:30:00 PM 19.04 66.272 8.35 4.7 -5
9/26/2022 9:45:00 PM 19.04 66.272 8.37 4.7 -5
9/26/2022 10:00:00 PM 18.91 66.038 8.33 4.74 -5
9/26/2022 10:15:00 PM 19.04 66.272 8.36 4.67 -5
9/26/2022 10:30:00 PM 18.91 66.038 8.35 4.68 -5
9/26/2022 10:45:00 PM 18.91 66.038 8.37 4.75 -5
9/26/2022 11:00:00 PM 18.91 66.038 8.41 4.71 -5
9/26/2022 11:15:00 PM 18.78 65.804 8.37 4.77 -5
9/26/2022 11:30:00 PM 18.91 66.038 8.39 4.77 -5
9/26/2022 11:45:00 PM 18.78 65.804 8.38 4.73 -5
9/27/2022 12:00:00 AM 18.91 66.038 8.38 4.75 -5
9/27/2022 12:15:00 AM 18.89 66.002 8.4 4.62 -5
9/27/2022 12:30:00 AM 18.78 65.804 8.36 4.65 -5
9/27/2022 12:45:00 AM 18.78 65.804 8.37 4.6 -5
9/27/2022 1:00:00 AM 18.63 65.534 8.35 4.62 -5
9/27/2022 1:15:00 AM 18.64 65.552 8.32 4.6 -5
9/27/2022 1:30:00 AM 18.78 65.804 8.34 4.87 -5
9/27/2022 1:45:00 AM 18.63 65.534 8.34 4.91 -5
9/27/2022 2:00:00 AM 18.64 65.552 8.37 4.84 -5
9/27/2022 2:15:00 AM 18.63 65.534 8.39 4.88 -5
9/27/2022 2:30:00 AM 18.53 65.354 8.36 4.89 -5
9/27/2022 2:45:00 AM 18.64 65.552 8.4 4.93 -5
9/27/2022 3:00:00 AM 18.64 65.552 8.39 4.99 -5
9/27/2022 3:15:00 AM 18.52 65.336 8.36 5.02 -5
9/27/2022 3:30:00 AM 18.64 65.552 8.4 5 -5
9/27/2022 3:45:00 AM 18.41 65.138 8.36 5.04 -5
9/27/2022 4:00:00 AM 18.64 65.552 8.36 5.11 -5
9/27/2022 4:15:00 AM 18.64 65.552 8.37 5.08 -5
9/27/2022 4:30:00 AM 18.41 65.138 8.34 5.07 -5
9/27/2022 4:45:00 AM 18.64 65.552 8.37 5.11 -5
9/27/2022 5:00:00 AM 18.41 65.138 8.36 5.17 -5
9/27/2022 5:15:00 AM 18.41 65.138 8.34 5.1 -5
9/27/2022 5:30:00 AM 18.64 65.552 8.33 5.16 -5
9/27/2022 5:45:00 AM 18.41 65.138 8.3 5.18 -5
9/27/2022 6:00:00 AM 18.52 65.336 8.3 5.01 -5
9/27/2022 6:15:00 AM 18.41 65.138 8.3 5.1 -5
9/27/2022 6:30:00 AM 18.15 64.67 8.26 5.11 -5
9/27/2022 6:45:00 AM 18.26 64.868 8.28 5.35 -5
9/27/2022 7:00:00 AM 18.52 65.336 8.28 5.19 -5
9/27/2022 7:15:00 AM 18.03 64.454 8.23 4.9 -5
9/27/2022 7:30:00 AM 18.15 64.67 8.26 4.97 -5
9/27/2022 7:45:00 AM 18.18 64.724 8.26 4.76 -5
9/27/2022 8:00:00 AM 18.15 64.67 8.21 4.82 -5
9/27/2022 8:15:00 AM 18.26 64.868 8.22 4.76 -5
9/27/2022 8:30:00 AM 18.15 64.67 8.22 4.99 -5
9/27/2022 8:45:00 AM 18.15 64.67 8.21 4.72 -5
9/27/2022 9:00:00 AM 18.15 64.67 8.24 4.49 -5
9/27/2022 9:15:00 AM 18.15 64.67 8.25 4.49 -5
9/27/2022 9:30:00 AM 18.15 64.67 8.24 4.3 -5
9/27/2022 9:45:00 AM 18.26 64.868 8.28 4.32 -5
9/27/2022 10:00:00 AM 18.26 64.868 8.3 4.22 -5
9/27/2022 10:15:00 AM 18.26 64.868 8.31 4.15 -5
9/27/2022 10:30:00 AM 18.26 64.868 8.33 4.12 -5
9/27/2022 10:45:00 AM 18.41 65.138 8.34 4.08 -5
9/27/2022 11:00:00 AM 18.26 64.868 8.33 4.41 -5
9/27/2022 11:15:00 AM 18.52 65.336 8.34 4.36 -5
9/27/2022 11:30:00 AM 18.41 65.138 8.37 4.19 -5
9/27/2022 11:45:00 AM 18.52 65.336 8.4 3.9 -5
9/27/2022 12:00:00 PM 18.63 65.534 8.39 3.89 -5
9/27/2022 12:15:00 PM 18.78 65.804 8.42 3.85 -5
9/27/2022 12:30:00 PM 18.78 65.804 8.43 3.82 -5
9/27/2022 12:45:00 PM 18.78 65.804 8.43 3.83 -5
9/27/2022 1:00:00 PM 18.78 65.804 8.41 3.84 -5
9/27/2022 1:15:00 PM 18.78 65.804 8.4 3.85 -5
9/27/2022 1:30:00 PM 18.78 65.804 8.39 3.81 -5
9/27/2022 1:45:00 PM 19.04 66.272 8.36 3.81 -5
9/27/2022 2:00:00 PM 18.78 65.804 8.35 4.51 -5
9/27/2022 2:15:00 PM 18.91 66.038 8.38 4.07 -5
9/27/2022 2:30:00 PM 19.04 66.272 8.38 4.06 -5
9/27/2022 2:45:00 PM 18.78 65.804 8.4 3.97 -5
9/27/2022 3:00:00 PM 18.91 66.038 8.4 3.91 -5
9/27/2022 3:15:00 PM 18.78 65.804 8.4 3.91 -5
9/27/2022 3:30:00 PM 18.91 66.038 8.4 3.84 -5
9/27/2022 3:45:00 PM 19.04 66.272 8.38 4.17 -5
9/27/2022 4:00:00 PM 19.04 66.272 8.38 4.05 -5
9/27/2022 4:15:00 PM 19.17 66.506 8.4 4 -5
9/27/2022 4:30:00 PM 19.04 66.272 8.4 3.72 -5
9/27/2022 4:45:00 PM 19.04 66.272 8.4 3.68 -5
9/27/2022 5:00:00 PM 18.91 66.038 8.39 3.79 -5
9/27/2022 5:15:00 PM 18.91 66.038 8.42 3.7 -5
9/27/2022 5:30:00 PM 18.91 66.038 8.43 3.72 -5
9/27/2022 5:45:00 PM 18.78 65.804 8.44 3.7 -5
9/27/2022 6:00:00 PM 18.91 66.038 8.46 3.74 -5
9/27/2022 6:15:00 PM 18.91 66.038 8.45 3.71 -5
9/27/2022 6:30:00 PM 18.78 65.804 8.42 3.66 -5
9/27/2022 6:45:00 PM 18.91 66.038 8.46 3.63 -5
9/27/2022 7:00:00 PM 18.78 65.804 8.46 3.69 -5
9/27/2022 7:15:00 PM 18.78 65.804 8.4 3.72 -5
9/27/2022 7:30:00 PM 18.78 65.804 8.39 3.83 -5
9/27/2022 7:45:00 PM 18.64 65.552 8.33 3.91 -5
9/27/2022 8:00:00 PM 18.78 65.804 8.34 3.92 -5
9/27/2022 8:15:00 PM 18.64 65.552 8.36 3.92 -5
9/27/2022 8:30:00 PM 18.41 65.138 8.35 4.01 -5
9/27/2022 8:45:00 PM 18.53 65.354 8.37 4.19 -5
9/27/2022 9:00:00 PM 18.41 65.138 8.34 4.6 -5
9/27/2022 9:15:00 PM 18.52 65.336 8.38 4.46 -5
9/27/2022 9:30:00 PM 18.52 65.336 8.42 4.39 -5
9/27/2022 9:45:00 PM 18.41 65.138 8.4 4.3 -5
9/27/2022 10:00:00 PM 18.52 65.336 8.44 4.28 -5
9/27/2022 10:15:00 PM 18.26 64.868 8.44 4.29 -5
9/27/2022 10:30:00 PM 18.26 64.868 8.45 4.28 -5
9/27/2022 10:45:00 PM 18.52 65.336 8.48 4.29 -5
9/27/2022 11:00:00 PM 18.15 64.67 8.45 4.51 -5
9/27/2022 11:15:00 PM 18.41 65.138 8.44 4.54 -5
9/27/2022 11:30:00 PM 18.41 65.138 8.46 4.51 -5
9/27/2022 11:45:00 PM 18.15 64.67 8.42 4.49 -5
9/28/2022 12:00:00 AM 18.41 65.138 8.43 4.53 -5
9/28/2022 12:15:00 AM 18.26 64.868 8.45 4.53 -5
9/28/2022 12:30:00 AM 18.15 64.67 8.42 4.54 -5
9/28/2022 12:45:00 AM 18.41 65.138 8.45 4.52 -5
9/28/2022 1:00:00 AM 18.03 64.454 8.44 4.58 -5
9/28/2022 1:15:00 AM 18.15 64.67 8.43 4.59 -5
9/28/2022 1:30:00 AM 18.15 64.67 8.45 4.56 -5
9/28/2022 1:45:00 AM 17.9 64.22 8.41 4.57 -5
9/28/2022 2:00:00 AM 18.26 64.868 8.43 4.61 -5
9/28/2022 2:15:00 AM 18.03 64.454 8.43 4.65 -5
9/28/2022 2:30:00 AM 18.26 64.868 8.4 4.72 -5
9/28/2022 2:45:00 AM 18.15 64.67 8.42 4.69 -5
9/28/2022 3:00:00 AM 17.9 64.22 8.39 4.69 -5
9/28/2022 3:15:00 AM 17.9 64.22 8.39 4.7 -5
9/28/2022 3:30:00 AM 18.03 64.454 8.41 4.79 -5
9/28/2022 3:45:00 AM 17.9 64.22 8.38 4.83 -5
9/28/2022 4:00:00 AM 18.03 64.454 8.4 4.63 -5
9/28/2022 4:15:00 AM 17.9 64.22 8.41 4.65 -5
9/28/2022 4:30:00 AM 17.9 64.22 8.37 4.66 -5
9/28/2022 4:45:00 AM 17.9 64.22 8.38 4.71 -5
9/28/2022 5:00:00 AM 17.9 64.22 8.38 4.82 -5
9/28/2022 5:15:00 AM 17.79 64.022 8.34 4.74 -5
9/28/2022 5:30:00 AM 17.9 64.22 8.34 4.75 -5
9/28/2022 5:45:00 AM 17.79 64.022 8.32 4.74 -5
9/28/2022 6:00:00 AM 17.81 64.058 8.27 4.78 -5
9/28/2022 6:15:00 AM 17.79 64.022 8.28 4.85 -5
9/28/2022 6:30:00 AM 17.9 64.22 8.28 4.85 -5
9/28/2022 6:45:00 AM 17.53 63.554 8.23 4.85 -5
9/28/2022 7:00:00 AM 17.67 63.806 8.24 4.82 -5
9/28/2022 7:15:00 AM 17.53 63.554 8.24 4.69 -5
9/28/2022 7:30:00 AM 17.42 63.356 8.21 4.7 -5
9/28/2022 7:45:00 AM 17.66 63.788 8.23 4.75 -5
9/28/2022 8:00:00 AM 17.67 63.806 8.23 4.41 -5
9/28/2022 8:15:00 AM 17.42 63.356 8.19 4.43 -5
9/28/2022 8:30:00 AM 17.53 63.554 8.21 4.37 -5
9/28/2022 8:45:00 AM 17.67 63.806 8.2 4.32 -5
9/28/2022 9:00:00 AM 17.53 63.554 8.17 4.16 -5
9/28/2022 9:15:00 AM 17.66 63.788 8.19 3.96 -5
9/28/2022 9:30:00 AM 17.53 63.554 8.19 3.97 -5
9/28/2022 9:45:00 AM 17.86 64.148 8.18 3.85 -5
9/28/2022 10:00:00 AM 17.42 63.356 8.15 3.85 -5
9/28/2022 10:15:00 AM 17.42 63.356 8.19 3.8 -5
9/28/2022 10:30:00 AM 17.79 64.022 8.23 3.75 -5
9/28/2022 10:45:00 AM 18.03 64.454 8.26 3.77 -5
9/28/2022 11:00:00 AM 17.79 64.022 8.27 3.69 -5
9/28/2022 11:15:00 AM 17.79 64.022 8.29 3.72 -5
9/28/2022 11:30:00 AM 17.91 64.238 8.3 3.67 -5
9/28/2022 11:45:00 AM 18.41 65.138 8.28 3.62 -5
9/28/2022 12:00:00 PM 17.89 64.202 8.26 4.17 -5
9/28/2022 12:15:00 PM 18.03 64.454 8.27 3.89 -5
9/28/2022 12:30:00 PM 18.15 64.67 8.28 3.79 -5
9/28/2022 12:45:00 PM 18.03 64.454 8.28 3.79 -5
9/28/2022 1:00:00 PM 18.26 64.868 8.28 3.78 -5
9/28/2022 1:15:00 PM 18.15 64.67 8.27 3.52 -5
9/28/2022 1:30:00 PM 18.03 64.454 8.27 3.49 -5
9/28/2022 1:45:00 PM 18.15 64.67 8.28 3.5 -5
9/28/2022 2:00:00 PM 18.64 65.552 8.27 3.6 -5
9/28/2022 2:15:00 PM 18.26 64.868 6.87 3.58 -5
9/28/2022 2:30:00 PM 18.41 65.138 7.17 3.46 -5
9/28/2022 2:45:00 PM 18.52 65.336 7.45 3.32 -5
9/28/2022 3:00:00 PM 18.41 65.138 7.55 3.34 -5
9/28/2022 3:15:00 PM 18.53 65.354 7.59 3.52 -5
9/28/2022 3:30:00 PM 18.78 65.804 7.63 3.54 -5
9/28/2022 3:45:00 PM 18.52 65.336 7.64 3.47 -5
9/28/2022 4:00:00 PM 18.64 65.552 7.65 3.47 -5
9/28/2022 4:15:00 PM 18.52 65.336 7.67 3.46 -5
9/28/2022 4:30:00 PM 18.78 65.804 7.69 3.41 -5
9/28/2022 4:45:00 PM 18.78 65.804 7.7 3.38 -5
9/28/2022 5:00:00 PM 18.78 65.804 7.71 3.39 -5
9/28/2022 5:15:00 PM 18.78 65.804 7.72 3.35 -5
9/28/2022 5:30:00 PM 18.64 65.552 7.72 3.32 -5
9/28/2022 5:45:00 PM 18.78 65.804 7.72 3.2 -5
9/28/2022 6:00:00 PM 18.78 65.804 7.73 3.23 -5
9/28/2022 6:15:00 PM 18.78 65.804 7.73 3.19 -5
9/28/2022 6:30:00 PM 18.64 65.552 7.74 3.2 -5
9/28/2022 6:45:00 PM 18.64 65.552 7.74 3.19 -5
9/28/2022 7:00:00 PM 18.78 65.804 7.74 3.22 -5
9/28/2022 7:15:00 PM 18.52 65.336 7.75 3.23 -5
9/28/2022 7:30:00 PM 18.64 65.552 7.75 3.29 -5
9/28/2022 7:45:00 PM 18.52 65.336 7.75 3.4 -5
9/28/2022 8:00:00 PM 18.64 65.552 7.76 3.4 -5
9/28/2022 8:15:00 PM 18.64 65.552 7.76 3.47 -5
9/28/2022 8:30:00 PM 18.41 65.138 7.76 3.5 -5
9/28/2022 8:45:00 PM 18.52 65.336 7.76 3.61 -5
9/28/2022 9:00:00 PM 18.52 65.336 7.77 3.65 -5
9/28/2022 9:15:00 PM 18.63 65.534 7.78 3.71 -5
9/28/2022 9:30:00 PM 18.52 65.336 7.78 3.96 -5
9/28/2022 9:45:00 PM 18.41 65.138 7.79 3.96 -5
9/28/2022 10:00:00 PM 18.63 65.534 7.8 3.9 -5
9/28/2022 10:15:00 PM 18.41 65.138 7.81 3.93 -5
9/28/2022 10:30:00 PM 18.52 65.336 7.81 3.9 -5
9/28/2022 10:45:00 PM 18.53 65.354 7.82 4 -5
9/28/2022 11:00:00 PM 18.52 65.336 7.83 3.95 -5
9/28/2022 11:15:00 PM 18.52 65.336 7.83 3.89 -5
9/28/2022 11:30:00 PM 18.41 65.138 7.83 3.95 -5
9/28/2022 11:45:00 PM 18.41 65.138 7.83 3.99 -5
9/29/2022 12:00:00 AM 18.41 65.138 7.83 4.12 -5
9/29/2022 12:15:00 AM 18.41 65.138 7.83 4.04 -5
9/29/2022 12:30:00 AM 18.52 65.336 7.83 3.98 -5
9/29/2022 12:45:00 AM 18.26 64.868 7.82 3.97 -5
9/29/2022 1:00:00 AM 18.41 65.138 7.82 3.96 -5
9/29/2022 1:15:00 AM 18.41 65.138 7.82 3.96 -5
9/29/2022 1:30:00 AM 18.26 64.868 7.82 4.06 -5
9/29/2022 1:45:00 AM 18.5 65.3 7.82 4.03 -5
9/29/2022 2:00:00 AM 18.41 65.138 7.82 4 -5
9/29/2022 2:15:00 AM 18.26 64.868 7.82 4.1 -5
9/29/2022 2:30:00 AM 18.26 64.868 7.82 4.09 -5
9/29/2022 2:45:00 AM 18.26 64.868 7.82 4.07 -5
9/29/2022 3:00:00 AM 18.41 65.138 7.83 4.09 -5
9/29/2022 3:15:00 AM 18.15 64.67 7.82 4.09 -5
9/29/2022 3:30:00 AM 18.15 64.67 7.82 4.14 -5
9/29/2022 3:45:00 AM 18.41 65.138 7.81 4.17 -5
9/29/2022 4:00:00 AM 18.03 64.454 7.81 4.18 -5
9/29/2022 4:15:00 AM 18.16 64.688 7.8 4.17 -5
9/29/2022 4:30:00 AM 18.15 64.67 7.8 4.21 -5
9/29/2022 4:45:00 AM 18.03 64.454 7.79 4.13 -5
9/29/2022 5:00:00 AM 18.26 64.868 7.78 4.15 -5
9/29/2022 5:15:00 AM 17.9 64.22 7.77 4.2 -5
9/29/2022 5:30:00 AM 18.14 64.652 7.76 4.26 -5
9/29/2022 5:45:00 AM 18.26 64.868 7.75 4.2 -5
9/29/2022 6:00:00 AM 17.79 64.022 7.74 4.19 -5
9/29/2022 6:15:00 AM 18.03 64.454 7.73 4.22 -5
9/29/2022 6:30:00 AM 17.9 64.22 7.71 4.27 -5
9/29/2022 6:45:00 AM 17.9 64.22 8.39 4.07 -5
9/29/2022 7:00:00 AM 18.15 64.67 8.37 4.15 -5
9/29/2022 7:15:00 AM 17.9 64.22 8.36 4.03 -5
9/29/2022 7:30:00 AM 17.9 64.22 8.35 4.05 -5
9/29/2022 7:45:00 AM 18.03 64.454 8.34 4.04 -5
9/29/2022 8:00:00 AM 17.79 64.022 8.33 3.94 -5
9/29/2022 8:15:00 AM 17.9 64.22 8.32 3.81 -5
9/29/2022 8:30:00 AM 18.15 64.67 8.32 3.74 -5
9/29/2022 8:45:00 AM 17.67 63.806 8.31 3.67 -5
9/29/2022 9:00:00 AM 17.9 64.22 8.31 3.63 -5
9/29/2022 9:15:00 AM 18.03 64.454 8.32 3.52 -5
9/29/2022 9:30:00 AM 17.79 64.022 8.32 3.5 -5
9/29/2022 9:45:00 AM 18.03 64.454 8.33 3.46 -5
9/29/2022 10:00:00 AM 18.03 64.454 8.34 3.44 -5
9/29/2022 10:15:00 AM 17.9 64.22 8.34 3.38 -5
9/29/2022 10:30:00 AM 17.9 64.22 8.36 3.39 -5
9/29/2022 10:45:00 AM 18.03 64.454 8.37 3.35 -5
9/29/2022 11:00:00 AM 18.41 65.138 8.38 3.33 -5
9/29/2022 11:15:00 AM 17.9 64.22 8.39 3.48 -5
9/29/2022 11:30:00 AM 18.18 64.724 8.41 3.42 -5
9/29/2022 11:45:00 AM 18.26 64.868 8.42 3.38 -5
9/29/2022 12:00:00 PM 17.9 64.22 8.43 3.33 -5
9/29/2022 12:15:00 PM 18.26 64.868 8.44 3.31 -5
9/29/2022 12:30:00 PM 18.26 64.868 8.45 3.26 -5
9/29/2022 12:45:00 PM 18.15 64.67 8.46 3.29 -5
9/29/2022 1:00:00 PM 18.52 65.336 8.47 3.18 -5
9/29/2022 1:15:00 PM 18.26 64.868 8.48 3.07 -5
9/29/2022 1:30:00 PM 18.41 65.138 8.49 3.12 -5
9/29/2022 1:45:00 PM 18.52 65.336 8.49 3.14 -5
9/29/2022 2:00:00 PM 18.41 65.138 8.49 3.22 -5
9/29/2022 2:15:00 PM 18.41 65.138 8.5 3.13 -5
9/29/2022 2:30:00 PM 18.63 65.534 8.51 3.04 -5
9/29/2022 2:45:00 PM 18.41 65.138 8.52 3.08 -5
9/29/2022 3:00:00 PM 18.64 65.552 8.53 3.05 -5
9/29/2022 3:15:00 PM 18.78 65.804 8.54 3.07 -5
9/29/2022 3:30:00 PM 18.52 65.336 8.55 3.15 -5
9/29/2022 3:45:00 PM 18.78 65.804 8.56 3.12 -5
9/29/2022 4:00:00 PM 18.78 65.804 8.57 3.1 -5
9/29/2022 4:15:00 PM 18.63 65.534 8.57 3.07 -5
9/29/2022 4:30:00 PM 18.91 66.038 8.57 3.04 -5
9/29/2022 4:45:00 PM 18.78 65.804 8.58 3.05 -5
9/29/2022 5:00:00 PM 18.78 65.804 8.58 3 -5
9/29/2022 5:15:00 PM 18.78 65.804 8.59 3.02 -5
9/29/2022 5:30:00 PM 18.52 65.336 8.59 2.94 -5
9/29/2022 5:45:00 PM 18.78 65.804 8.59 2.96 -5
9/29/2022 6:00:00 PM 18.52 65.336 8.6 2.94 -5
9/29/2022 6:15:00 PM 18.64 65.552 8.6 2.95 -5
9/29/2022 6:30:00 PM 18.64 65.552 8.6 3.06 -5
9/29/2022 6:45:00 PM 18.52 65.336 8.6 2.98 -5
9/29/2022 7:00:00 PM 18.78 65.804 8.6 2.94 -5
9/29/2022 7:15:00 PM 18.41 65.138 8.6 2.94 -5
9/29/2022 7:30:00 PM 18.52 65.336 8.6 2.96 -5
9/29/2022 7:45:00 PM 18.63 65.534 8.6 3.02 -5
9/29/2022 8:00:00 PM 18.52 65.336 8.6 3.01 -5
9/29/2022 8:15:00 PM 18.63 65.534 8.57 4.22 -5
9/29/2022 8:30:00 PM 18.33 64.994 8.59 3.69 -5
9/29/2022 8:45:00 PM 18.41 65.138 8.59 3.54 -5
9/29/2022 9:00:00 PM 18.64 65.552 8.6 3.57 -5
9/29/2022 9:15:00 PM 18.41 65.138 8.6 3.54 -5
9/29/2022 9:30:00 PM 18.63 65.534 8.61 3.48 -5
9/29/2022 9:45:00 PM 18.26 64.868 8.61 3.54 -5
9/29/2022 10:00:00 PM 18.41 65.138 8.62 3.47 -5
9/29/2022 10:15:00 PM 18.52 65.336 8.62 3.43 -5
9/29/2022 10:30:00 PM 18.15 64.67 8.63 3.36 -5
9/29/2022 10:45:00 PM 18.52 65.336 8.63 3.4 -5
9/29/2022 11:00:00 PM 18.26 64.868 8.65 3.52 -5
9/29/2022 11:15:00 PM 18.26 64.868 8.69 3.47 -5
9/29/2022 11:30:00 PM 18.41 65.138 8.69 3.53 -5
9/29/2022 11:45:00 PM 18.26 64.868 8.71 3.48 -5
9/30/2022 12:00:00 AM 18.26 64.868 8.78 3.45 -5
9/30/2022 12:15:00 AM 18.41 65.138 8.81 3.46 -5
9/30/2022 12:30:00 AM 18.15 64.67 8.85 3.46 -5
9/30/2022 12:45:00 AM 18.41 65.138 8.86 3.56 -5
9/30/2022 1:00:00 AM 18.15 64.67 8.86 3.46 -5
9/30/2022 1:15:00 AM 18.15 64.67 8.86 3.47 -5
9/30/2022 1:30:00 AM 18.26 64.868 8.86 3.49 -5
9/30/2022 1:45:00 AM 18.15 64.67 8.86 3.45 -5
9/30/2022 2:00:00 AM 18.15 64.67 8.86 3.61 -5
9/30/2022 2:15:00 AM 18.26 64.868 8.87 3.48 -5
9/30/2022 2:30:00 AM 17.79 64.022 8.87 3.54 -5
9/30/2022 2:45:00 AM 18.26 64.868 8.87 3.48 -5
9/30/2022 3:00:00 AM 18.03 64.454 8.87 3.5 -5
9/30/2022 3:15:00 AM 17.9 64.22 8.86 3.52 -5
9/30/2022 3:30:00 AM 18.26 64.868 8.86 3.51 -5
9/30/2022 3:45:00 AM 17.9 64.22 8.86 3.49 -5
9/30/2022 4:00:00 AM 17.9 64.22 8.86 3.51 -5
9/30/2022 4:15:00 AM 18.32 64.976 8.86 3.52 -5
9/30/2022 4:30:00 AM 17.79 64.022 8.85 3.51 -5
9/30/2022 4:45:00 AM 17.9 64.22 8.85 3.53 -5
9/30/2022 5:00:00 AM 18.03 64.454 8.84 3.53 -5
9/30/2022 5:15:00 AM 17.9 64.22 8.83 3.74 -5
9/30/2022 5:30:00 AM 17.79 64.022 8.82 3.55 -5
9/30/2022 5:45:00 AM 17.9 64.22 8.81 3.57 -5
9/30/2022 6:00:00 AM 17.66 63.788 8.8 3.56 -5
9/30/2022 6:15:00 AM 17.66 63.788 8.79 3.57 -5
9/30/2022 6:30:00 AM 18.03 64.454 8.78 3.58 -5
9/30/2022 6:45:00 AM 17.66 63.788 8.77 3.63 -5
9/30/2022 7:00:00 AM 17.79 64.022 8.76 3.63 -5
9/30/2022 7:15:00 AM 17.66 63.788 8.75 3.63 -5
9/30/2022 7:30:00 AM 17.29 63.122 8.74 3.59 -5
9/30/2022 7:45:00 AM 17.53 63.554 8.73 3.48 -5
9/30/2022 8:00:00 AM 17.66 63.788 8.71 3.59 -5
9/30/2022 8:15:00 AM 17.79 64.022 8.71 3.38 -5
9/30/2022 8:30:00 AM 17.42 63.356 8.7 3.35 -5
9/30/2022 8:45:00 AM 17.53 63.554 8.69 3.28 -5
9/30/2022 9:00:00 AM 17.29 63.122 8.68 2.72 -5
9/30/2022 9:15:00 AM 17.53 63.554 8.68 2.61 -5
9/30/2022 9:30:00 AM 17.66 63.788 8.68 2.61 -5
9/30/2022 9:45:00 AM 17.66 63.788 8.68 2.59 -5
9/30/2022 10:00:00 AM 17.42 63.356 8.68 2.6 -5
9/30/2022 10:15:00 AM 17.29 63.122 8.69 2.63 -5
9/30/2022 10:30:00 AM 17.42 63.356 8.69 2.6 -5
9/30/2022 10:45:00 AM 17.41 63.338 8.7 2.58 -5
9/30/2022 11:00:00 AM 17.42 63.356 8.7 2.55 -5
9/30/2022 11:15:00 AM 17.29 63.122 8.71 2.56 -5
9/30/2022 11:30:00 AM 17.42 63.356 8.7 2.82 -5
9/30/2022 11:45:00 AM 17.9 64.22 8.73 2.67 -5
9/30/2022 12:00:00 PM 17.42 63.356 8.74 2.62 -5
9/30/2022 12:15:00 PM 17.53 63.554 8.76 2.58 -5
9/30/2022 12:30:00 PM 17.66 63.788 8.77 2.58 -5
9/30/2022 12:45:00 PM 17.53 63.554 8.77 2.58 -5
9/30/2022 1:00:00 PM 17.79 64.022 8.79 2.54 -5
9/30/2022 1:15:00 PM 17.66 63.788 8.8 2.61 -5
9/30/2022 1:30:00 PM 17.79 64.022 8.8 2.61 -5
9/30/2022 1:45:00 PM 18.03 64.454 8.8 2.55 -5
9/30/2022 2:00:00 PM 17.66 63.788 8.81 2.44 -5
9/30/2022 2:15:00 PM 18.03 64.454 8.82 2.48 -5
9/30/2022 2:30:00 PM 17.66 63.788 8.82 2.5 -5
9/30/2022 2:45:00 PM 17.9 64.22 8.82 2.47 -5
9/30/2022 3:00:00 PM 18.03 64.454 8.83 2.4 -5
9/30/2022 3:15:00 PM 17.79 64.022 8.84 2.44 -5
9/30/2022 3:30:00 PM 17.9 64.22 8.84 2.4 -5
9/30/2022 3:45:00 PM 17.9 64.22 8.85 2.44 -5
9/30/2022 4:00:00 PM 17.79 64.022 8.85 2.48 -5
9/30/2022 4:15:00 PM 18.03 64.454 8.85 2.46 -5
9/30/2022 4:30:00 PM 17.66 63.788 8.86 2.39 -5
9/30/2022 4:45:00 PM 17.9 64.22 8.86 2.35 -5
9/30/2022 5:00:00 PM 17.9 64.22 8.86 2.39 -5
9/30/2022 5:15:00 PM 17.79 64.022 8.86 2.43 -5
9/30/2022 5:30:00 PM 18.03 64.454 8.86 2.39 -5
9/30/2022 5:45:00 PM 17.9 64.22 8.86 2.35 -5
9/30/2022 6:00:00 PM 17.79 64.022 8.86 2.31 -5
9/30/2022 6:15:00 PM 17.79 64.022 8.86 2.32 -5
9/30/2022 6:30:00 PM 17.66 63.788 8.86 2.33 -5
9/30/2022 6:45:00 PM 17.79 64.022 8.86 2.41 -5
9/30/2022 7:00:00 PM 17.9 64.22